<?xml version="1.0" encoding="UTF-8" standalone="no" ?>
<gpx xmlns="http://www.topografix.com/GPX/1/1" xmlns:xsi="http://www.w3.org/2001/XMLSchema-instance" xsi:schemaLocation="http://www.topografix.com/GPX/1/1 http://www.topografix.com/GPX/1/1/gpx.xsd" version="1.1" creator="VisuGPX - https://www.visugpx.com">
  <metadata>
    <name>Pic Astu boucle-64-Ski</name>
    <desc><![CDATA[Jolie boucle en vallée d'ossau ]]></desc>
  </metadata>
  <trk>
    <name><![CDATA[2022-03-27 Pic Astu boucle ]]></name>
    <desc><![CDATA[<p>Heure de départ: 09:36 27 mars 2022<br/>Heure d'arrivée: 15:26 27 mars 2022<br/>Distance: 15,3 km (05:49)<br/>Temps déplacement: 03:08<br/>Vitesse moyenne: 2,62 km/h<br/>Vitesse moyenne mouv.: 4,85 km/h<br/>Vitesse Max.: 30,13 km/h<br/>Altitude minimale: 1711 m<br/>Altitude maximale: 2276 m<br/>Vitesse de montée: 362,4 m/h<br/>Vitesse de descente: -577,2 m/h<br/>Gain d'altitude: 1297 m<br/>Perte d'altitude: -1300 m<br/>Temps de montée: 03:34<br/>Temps de descente: 02:15<br/></p><hr align="center" width="480" style="height: 2px; width: 517px"/>]]></desc>
    <trkseg>
      <trkpt lat="42.81524" lon="-0.41811">
        <ele>1721.91</ele>
        <time>2022-03-27T07:36:04Z</time>
      </trkpt>
      <trkpt lat="42.81511" lon="-0.41829">
        <ele>1722</ele>
        <time>2022-03-27T07:36:50Z</time>
      </trkpt>
      <trkpt lat="42.81496" lon="-0.41844">
        <ele>1721.97</ele>
        <time>2022-03-27T07:37:06Z</time>
      </trkpt>
      <trkpt lat="42.81482" lon="-0.4186">
        <ele>1722</ele>
        <time>2022-03-27T07:37:25Z</time>
      </trkpt>
      <trkpt lat="42.81464" lon="-0.41866">
        <ele>1717</ele>
        <time>2022-03-27T07:37:43Z</time>
      </trkpt>
      <trkpt lat="42.8145" lon="-0.41882">
        <ele>1717</ele>
        <time>2022-03-27T07:38:05Z</time>
      </trkpt>
      <trkpt lat="42.81439" lon="-0.41904">
        <ele>1715</ele>
        <time>2022-03-27T07:38:21Z</time>
      </trkpt>
      <trkpt lat="42.8143" lon="-0.41926">
        <ele>1712</ele>
        <time>2022-03-27T07:38:46Z</time>
      </trkpt>
      <trkpt lat="42.81427" lon="-0.41952">
        <ele>1711.03</ele>
        <time>2022-03-27T07:39:07Z</time>
      </trkpt>
      <trkpt lat="42.81416" lon="-0.41972">
        <ele>1715.55</ele>
        <time>2022-03-27T07:39:24Z</time>
      </trkpt>
      <trkpt lat="42.81406" lon="-0.41993">
        <ele>1715</ele>
        <time>2022-03-27T07:39:39Z</time>
      </trkpt>
      <trkpt lat="42.81397" lon="-0.42015">
        <ele>1714</ele>
        <time>2022-03-27T07:39:53Z</time>
      </trkpt>
      <trkpt lat="42.81386" lon="-0.42035">
        <ele>1713.99</ele>
        <time>2022-03-27T07:40:10Z</time>
      </trkpt>
      <trkpt lat="42.8137" lon="-0.42049">
        <ele>1714</ele>
        <time>2022-03-27T07:40:29Z</time>
      </trkpt>
      <trkpt lat="42.8136" lon="-0.42071">
        <ele>1715.97</ele>
        <time>2022-03-27T07:40:50Z</time>
      </trkpt>
      <trkpt lat="42.81372" lon="-0.42089">
        <ele>1717</ele>
        <time>2022-03-27T07:41:03Z</time>
      </trkpt>
      <trkpt lat="42.81388" lon="-0.42102">
        <ele>1717</ele>
        <time>2022-03-27T07:41:16Z</time>
      </trkpt>
      <trkpt lat="42.81392" lon="-0.42126">
        <ele>1717</ele>
        <time>2022-03-27T07:41:36Z</time>
      </trkpt>
      <trkpt lat="42.81385" lon="-0.4215">
        <ele>1720</ele>
        <time>2022-03-27T07:41:53Z</time>
      </trkpt>
      <trkpt lat="42.81378" lon="-0.42174">
        <ele>1721</ele>
        <time>2022-03-27T07:42:11Z</time>
      </trkpt>
      <trkpt lat="42.81379" lon="-0.42199">
        <ele>1721</ele>
        <time>2022-03-27T07:47:18Z</time>
      </trkpt>
      <trkpt lat="42.81381" lon="-0.42224">
        <ele>1721</ele>
        <time>2022-03-27T07:47:36Z</time>
      </trkpt>
      <trkpt lat="42.8138" lon="-0.42249">
        <ele>1721</ele>
        <time>2022-03-27T07:47:54Z</time>
      </trkpt>
      <trkpt lat="42.81379" lon="-0.42275">
        <ele>1723</ele>
        <time>2022-03-27T07:48:13Z</time>
      </trkpt>
      <trkpt lat="42.81379" lon="-0.423">
        <ele>1726</ele>
        <time>2022-03-27T07:48:35Z</time>
      </trkpt>
      <trkpt lat="42.81383" lon="-0.42324">
        <ele>1729</ele>
        <time>2022-03-27T07:48:56Z</time>
      </trkpt>
      <trkpt lat="42.81386" lon="-0.42349">
        <ele>1731</ele>
        <time>2022-03-27T07:49:16Z</time>
      </trkpt>
      <trkpt lat="42.81387" lon="-0.42374">
        <ele>1732</ele>
        <time>2022-03-27T07:49:37Z</time>
      </trkpt>
      <trkpt lat="42.81387" lon="-0.424">
        <ele>1733</ele>
        <time>2022-03-27T07:49:55Z</time>
      </trkpt>
      <trkpt lat="42.81388" lon="-0.42425">
        <ele>1734</ele>
        <time>2022-03-27T07:50:13Z</time>
      </trkpt>
      <trkpt lat="42.81392" lon="-0.42449">
        <ele>1732</ele>
        <time>2022-03-27T07:50:34Z</time>
      </trkpt>
      <trkpt lat="42.81394" lon="-0.42474">
        <ele>1734.73</ele>
        <time>2022-03-27T07:50:58Z</time>
      </trkpt>
      <trkpt lat="42.81401" lon="-0.42497">
        <ele>1735</ele>
        <time>2022-03-27T07:51:18Z</time>
      </trkpt>
      <trkpt lat="42.81408" lon="-0.42521">
        <ele>1735</ele>
        <time>2022-03-27T07:51:41Z</time>
      </trkpt>
      <trkpt lat="42.81418" lon="-0.42541">
        <ele>1730.54</ele>
        <time>2022-03-27T07:51:57Z</time>
      </trkpt>
      <trkpt lat="42.81429" lon="-0.42561">
        <ele>1732</ele>
        <time>2022-03-27T07:52:12Z</time>
      </trkpt>
      <trkpt lat="42.8144" lon="-0.42582">
        <ele>1732</ele>
        <time>2022-03-27T07:52:31Z</time>
      </trkpt>
      <trkpt lat="42.81457" lon="-0.42591">
        <ele>1732</ele>
        <time>2022-03-27T07:52:47Z</time>
      </trkpt>
      <trkpt lat="42.81476" lon="-0.42592">
        <ele>1730.02</ele>
        <time>2022-03-27T07:53:04Z</time>
      </trkpt>
      <trkpt lat="42.81492" lon="-0.42581">
        <ele>1729</ele>
        <time>2022-03-27T07:53:26Z</time>
      </trkpt>
      <trkpt lat="42.81508" lon="-0.42568">
        <ele>1734</ele>
        <time>2022-03-27T07:53:54Z</time>
      </trkpt>
      <trkpt lat="42.81526" lon="-0.42573">
        <ele>1734</ele>
        <time>2022-03-27T07:54:18Z</time>
      </trkpt>
      <trkpt lat="42.81541" lon="-0.42586">
        <ele>1741</ele>
        <time>2022-03-27T07:54:52Z</time>
      </trkpt>
      <trkpt lat="42.81558" lon="-0.42597">
        <ele>1746.95</ele>
        <time>2022-03-27T07:55:19Z</time>
      </trkpt>
      <trkpt lat="42.8157" lon="-0.42616">
        <ele>1749</ele>
        <time>2022-03-27T07:55:44Z</time>
      </trkpt>
      <trkpt lat="42.81577" lon="-0.4264">
        <ele>1749.7</ele>
        <time>2022-03-27T07:56:06Z</time>
      </trkpt>
      <trkpt lat="42.81582" lon="-0.42663">
        <ele>1750</ele>
        <time>2022-03-27T07:56:29Z</time>
      </trkpt>
      <trkpt lat="42.81589" lon="-0.42687">
        <ele>1762</ele>
        <time>2022-03-27T07:56:52Z</time>
      </trkpt>
      <trkpt lat="42.81602" lon="-0.42705">
        <ele>1759</ele>
        <time>2022-03-27T07:57:18Z</time>
      </trkpt>
      <trkpt lat="42.81619" lon="-0.42696">
        <ele>1767</ele>
        <time>2022-03-27T07:58:10Z</time>
      </trkpt>
      <trkpt lat="42.81636" lon="-0.42687">
        <ele>1772</ele>
        <time>2022-03-27T07:58:57Z</time>
      </trkpt>
      <trkpt lat="42.81652" lon="-0.42674">
        <ele>1779</ele>
        <time>2022-03-27T08:00:37Z</time>
      </trkpt>
      <trkpt lat="42.8167" lon="-0.42667">
        <ele>1784.95</ele>
        <time>2022-03-27T08:01:05Z</time>
      </trkpt>
      <trkpt lat="42.81689" lon="-0.42666">
        <ele>1785</ele>
        <time>2022-03-27T08:01:30Z</time>
      </trkpt>
      <trkpt lat="42.81705" lon="-0.42676">
        <ele>1794</ele>
        <time>2022-03-27T08:02:13Z</time>
      </trkpt>
      <trkpt lat="42.8172" lon="-0.42692">
        <ele>1794</ele>
        <time>2022-03-27T08:02:40Z</time>
      </trkpt>
      <trkpt lat="42.81734" lon="-0.42708">
        <ele>1803</ele>
        <time>2022-03-27T08:03:06Z</time>
      </trkpt>
      <trkpt lat="42.81749" lon="-0.42722">
        <ele>1803</ele>
        <time>2022-03-27T08:03:30Z</time>
      </trkpt>
      <trkpt lat="42.81764" lon="-0.42736">
        <ele>1811</ele>
        <time>2022-03-27T08:04:17Z</time>
      </trkpt>
      <trkpt lat="42.81783" lon="-0.42742">
        <ele>1815.96</ele>
        <time>2022-03-27T08:04:46Z</time>
      </trkpt>
      <trkpt lat="42.818" lon="-0.4275">
        <ele>1816</ele>
        <time>2022-03-27T08:05:13Z</time>
      </trkpt>
      <trkpt lat="42.81819" lon="-0.42754">
        <ele>1822</ele>
        <time>2022-03-27T08:05:40Z</time>
      </trkpt>
      <trkpt lat="42.81837" lon="-0.42756">
        <ele>1826</ele>
        <time>2022-03-27T08:06:10Z</time>
      </trkpt>
      <trkpt lat="42.81855" lon="-0.42763">
        <ele>1826</ele>
        <time>2022-03-27T08:06:36Z</time>
      </trkpt>
      <trkpt lat="42.81873" lon="-0.42766">
        <ele>1830</ele>
        <time>2022-03-27T08:07:02Z</time>
      </trkpt>
      <trkpt lat="42.81891" lon="-0.42759">
        <ele>1840.7</ele>
        <time>2022-03-27T08:07:26Z</time>
      </trkpt>
      <trkpt lat="42.81906" lon="-0.42747">
        <ele>1838</ele>
        <time>2022-03-27T08:08:00Z</time>
      </trkpt>
      <trkpt lat="42.81923" lon="-0.42759">
        <ele>1847</ele>
        <time>2022-03-27T08:08:47Z</time>
      </trkpt>
      <trkpt lat="42.81932" lon="-0.4278">
        <ele>1851.96</ele>
        <time>2022-03-27T08:09:18Z</time>
      </trkpt>
      <trkpt lat="42.81936" lon="-0.42804">
        <ele>1852</ele>
        <time>2022-03-27T08:09:47Z</time>
      </trkpt>
      <trkpt lat="42.8194" lon="-0.42828">
        <ele>1856</ele>
        <time>2022-03-27T08:10:14Z</time>
      </trkpt>
      <trkpt lat="42.81955" lon="-0.42842">
        <ele>1866</ele>
        <time>2022-03-27T08:10:58Z</time>
      </trkpt>
      <trkpt lat="42.81973" lon="-0.42843">
        <ele>1867.4</ele>
        <time>2022-03-27T08:11:35Z</time>
      </trkpt>
      <trkpt lat="42.81985" lon="-0.42862">
        <ele>1870.8</ele>
        <time>2022-03-27T08:12:00Z</time>
      </trkpt>
      <trkpt lat="42.81991" lon="-0.42886">
        <ele>1872</ele>
        <time>2022-03-27T08:12:23Z</time>
      </trkpt>
      <trkpt lat="42.81997" lon="-0.42909">
        <ele>1876</ele>
        <time>2022-03-27T08:12:49Z</time>
      </trkpt>
      <trkpt lat="42.82004" lon="-0.42932">
        <ele>1882</ele>
        <time>2022-03-27T08:13:17Z</time>
      </trkpt>
      <trkpt lat="42.82013" lon="-0.42955">
        <ele>1885</ele>
        <time>2022-03-27T08:13:42Z</time>
      </trkpt>
      <trkpt lat="42.82016" lon="-0.4298">
        <ele>1888</ele>
        <time>2022-03-27T08:14:10Z</time>
      </trkpt>
      <trkpt lat="42.8202" lon="-0.43005">
        <ele>1892.99</ele>
        <time>2022-03-27T08:14:40Z</time>
      </trkpt>
      <trkpt lat="42.82026" lon="-0.43029">
        <ele>1898.46</ele>
        <time>2022-03-27T08:15:09Z</time>
      </trkpt>
      <trkpt lat="42.82024" lon="-0.43054">
        <ele>1899</ele>
        <time>2022-03-27T08:15:51Z</time>
      </trkpt>
      <trkpt lat="42.82022" lon="-0.43079">
        <ele>1903</ele>
        <time>2022-03-27T08:16:14Z</time>
      </trkpt>
      <trkpt lat="42.8203" lon="-0.43102">
        <ele>1909.99</ele>
        <time>2022-03-27T08:17:10Z</time>
      </trkpt>
      <trkpt lat="42.8204" lon="-0.43123">
        <ele>1913</ele>
        <time>2022-03-27T08:17:30Z</time>
      </trkpt>
      <trkpt lat="42.82051" lon="-0.43144">
        <ele>1919</ele>
        <time>2022-03-27T08:17:56Z</time>
      </trkpt>
      <trkpt lat="42.82056" lon="-0.43168">
        <ele>1920.74</ele>
        <time>2022-03-27T08:18:20Z</time>
      </trkpt>
      <trkpt lat="42.82061" lon="-0.43192">
        <ele>1921</ele>
        <time>2022-03-27T08:18:51Z</time>
      </trkpt>
      <trkpt lat="42.82066" lon="-0.43216">
        <ele>1925</ele>
        <time>2022-03-27T08:19:13Z</time>
      </trkpt>
      <trkpt lat="42.82071" lon="-0.4324">
        <ele>1930</ele>
        <time>2022-03-27T08:19:39Z</time>
      </trkpt>
      <trkpt lat="42.8208" lon="-0.43261">
        <ele>1932</ele>
        <time>2022-03-27T08:20:14Z</time>
      </trkpt>
      <trkpt lat="42.82088" lon="-0.43284">
        <ele>1937</ele>
        <time>2022-03-27T08:20:37Z</time>
      </trkpt>
      <trkpt lat="42.82095" lon="-0.43307">
        <ele>1940.64</ele>
        <time>2022-03-27T08:21:04Z</time>
      </trkpt>
      <trkpt lat="42.82103" lon="-0.4333">
        <ele>1941</ele>
        <time>2022-03-27T08:21:31Z</time>
      </trkpt>
      <trkpt lat="42.82112" lon="-0.43351">
        <ele>1945</ele>
        <time>2022-03-27T08:21:51Z</time>
      </trkpt>
      <trkpt lat="42.82121" lon="-0.43374">
        <ele>1948</ele>
        <time>2022-03-27T08:22:15Z</time>
      </trkpt>
      <trkpt lat="42.82129" lon="-0.43396">
        <ele>1952</ele>
        <time>2022-03-27T08:22:38Z</time>
      </trkpt>
      <trkpt lat="42.82136" lon="-0.43419">
        <ele>1952.97</ele>
        <time>2022-03-27T08:23:03Z</time>
      </trkpt>
      <trkpt lat="42.82145" lon="-0.43442">
        <ele>1957</ele>
        <time>2022-03-27T08:23:23Z</time>
      </trkpt>
      <trkpt lat="42.82153" lon="-0.43463">
        <ele>1959</ele>
        <time>2022-03-27T08:23:47Z</time>
      </trkpt>
      <trkpt lat="42.82161" lon="-0.43485">
        <ele>1961</ele>
        <time>2022-03-27T08:24:12Z</time>
      </trkpt>
      <trkpt lat="42.82171" lon="-0.43506">
        <ele>1969</ele>
        <time>2022-03-27T08:24:40Z</time>
      </trkpt>
      <trkpt lat="42.82184" lon="-0.43524">
        <ele>1969</ele>
        <time>2022-03-27T08:25:06Z</time>
      </trkpt>
      <trkpt lat="42.82195" lon="-0.43544">
        <ele>1977.46</ele>
        <time>2022-03-27T08:25:32Z</time>
      </trkpt>
      <trkpt lat="42.82206" lon="-0.43565">
        <ele>1979</ele>
        <time>2022-03-27T08:25:59Z</time>
      </trkpt>
      <trkpt lat="42.82215" lon="-0.43586">
        <ele>1980.98</ele>
        <time>2022-03-27T08:26:27Z</time>
      </trkpt>
      <trkpt lat="42.82225" lon="-0.43606">
        <ele>1988</ele>
        <time>2022-03-27T08:26:55Z</time>
      </trkpt>
      <trkpt lat="42.82235" lon="-0.43627">
        <ele>1989</ele>
        <time>2022-03-27T08:27:23Z</time>
      </trkpt>
      <trkpt lat="42.82247" lon="-0.43647">
        <ele>1991</ele>
        <time>2022-03-27T08:27:47Z</time>
      </trkpt>
      <trkpt lat="42.82257" lon="-0.43668">
        <ele>1997.91</ele>
        <time>2022-03-27T08:28:15Z</time>
      </trkpt>
      <trkpt lat="42.82267" lon="-0.4369">
        <ele>1998</ele>
        <time>2022-03-27T08:28:40Z</time>
      </trkpt>
      <trkpt lat="42.82278" lon="-0.43709">
        <ele>2007.28</ele>
        <time>2022-03-27T08:29:06Z</time>
      </trkpt>
      <trkpt lat="42.82288" lon="-0.43732">
        <ele>2009</ele>
        <time>2022-03-27T08:29:39Z</time>
      </trkpt>
      <trkpt lat="42.82297" lon="-0.43753">
        <ele>2009</ele>
        <time>2022-03-27T08:30:05Z</time>
      </trkpt>
      <trkpt lat="42.82309" lon="-0.43773">
        <ele>2018</ele>
        <time>2022-03-27T08:30:29Z</time>
      </trkpt>
      <trkpt lat="42.82318" lon="-0.43794">
        <ele>2019</ele>
        <time>2022-03-27T08:30:57Z</time>
      </trkpt>
      <trkpt lat="42.8233" lon="-0.43814">
        <ele>2018</ele>
        <time>2022-03-27T08:31:23Z</time>
      </trkpt>
      <trkpt lat="42.8234" lon="-0.43834">
        <ele>2028.7</ele>
        <time>2022-03-27T08:31:50Z</time>
      </trkpt>
      <trkpt lat="42.82348" lon="-0.43856">
        <ele>2029</ele>
        <time>2022-03-27T08:32:23Z</time>
      </trkpt>
      <trkpt lat="42.82358" lon="-0.43877">
        <ele>2029</ele>
        <time>2022-03-27T08:32:50Z</time>
      </trkpt>
      <trkpt lat="42.82365" lon="-0.439">
        <ele>2038</ele>
        <time>2022-03-27T08:33:15Z</time>
      </trkpt>
      <trkpt lat="42.82371" lon="-0.43924">
        <ele>2038</ele>
        <time>2022-03-27T08:33:38Z</time>
      </trkpt>
      <trkpt lat="42.82378" lon="-0.43947">
        <ele>2038.91</ele>
        <time>2022-03-27T08:33:59Z</time>
      </trkpt>
      <trkpt lat="42.82385" lon="-0.4397">
        <ele>2039</ele>
        <time>2022-03-27T08:34:23Z</time>
      </trkpt>
      <trkpt lat="42.82386" lon="-0.43995">
        <ele>2039</ele>
        <time>2022-03-27T08:34:46Z</time>
      </trkpt>
      <trkpt lat="42.82387" lon="-0.44021">
        <ele>2042</ele>
        <time>2022-03-27T08:35:11Z</time>
      </trkpt>
      <trkpt lat="42.82392" lon="-0.44045">
        <ele>2051</ele>
        <time>2022-03-27T08:35:40Z</time>
      </trkpt>
      <trkpt lat="42.82396" lon="-0.44069">
        <ele>2056</ele>
        <time>2022-03-27T08:36:11Z</time>
      </trkpt>
      <trkpt lat="42.82403" lon="-0.44092">
        <ele>2059</ele>
        <time>2022-03-27T08:36:38Z</time>
      </trkpt>
      <trkpt lat="42.82411" lon="-0.44115">
        <ele>2058</ele>
        <time>2022-03-27T08:37:05Z</time>
      </trkpt>
      <trkpt lat="42.82414" lon="-0.44139">
        <ele>2059.4</ele>
        <time>2022-03-27T08:37:28Z</time>
      </trkpt>
      <trkpt lat="42.82418" lon="-0.44164">
        <ele>2073</ele>
        <time>2022-03-27T08:38:03Z</time>
      </trkpt>
      <trkpt lat="42.82427" lon="-0.44185">
        <ele>2069</ele>
        <time>2022-03-27T08:38:46Z</time>
      </trkpt>
      <trkpt lat="42.82444" lon="-0.44194">
        <ele>2069</ele>
        <time>2022-03-27T08:39:20Z</time>
      </trkpt>
      <trkpt lat="42.82439" lon="-0.44218">
        <ele>2080</ele>
        <time>2022-03-27T08:40:18Z</time>
      </trkpt>
      <trkpt lat="42.82453" lon="-0.44233">
        <ele>2092</ele>
        <time>2022-03-27T08:40:54Z</time>
      </trkpt>
      <trkpt lat="42.82469" lon="-0.44244">
        <ele>2092</ele>
        <time>2022-03-27T08:41:34Z</time>
      </trkpt>
      <trkpt lat="42.82488" lon="-0.44243">
        <ele>2098</ele>
        <time>2022-03-27T08:41:57Z</time>
      </trkpt>
      <trkpt lat="42.82499" lon="-0.44263">
        <ele>2098</ele>
        <time>2022-03-27T08:42:38Z</time>
      </trkpt>
      <trkpt lat="42.82513" lon="-0.44279">
        <ele>2107.18</ele>
        <time>2022-03-27T08:43:04Z</time>
      </trkpt>
      <trkpt lat="42.82526" lon="-0.44296">
        <ele>2107</ele>
        <time>2022-03-27T08:43:32Z</time>
      </trkpt>
      <trkpt lat="42.82538" lon="-0.44316">
        <ele>2113</ele>
        <time>2022-03-27T08:44:00Z</time>
      </trkpt>
      <trkpt lat="42.82551" lon="-0.44333">
        <ele>2113</ele>
        <time>2022-03-27T08:46:39Z</time>
      </trkpt>
      <trkpt lat="42.82564" lon="-0.44352">
        <ele>2116</ele>
        <time>2022-03-27T08:47:02Z</time>
      </trkpt>
      <trkpt lat="42.82577" lon="-0.44369">
        <ele>2116</ele>
        <time>2022-03-27T08:47:21Z</time>
      </trkpt>
      <trkpt lat="42.82592" lon="-0.44384">
        <ele>2119</ele>
        <time>2022-03-27T08:47:40Z</time>
      </trkpt>
      <trkpt lat="42.82606" lon="-0.44398">
        <ele>2119</ele>
        <time>2022-03-27T08:47:59Z</time>
      </trkpt>
      <trkpt lat="42.82621" lon="-0.44412">
        <ele>2127</ele>
        <time>2022-03-27T08:48:22Z</time>
      </trkpt>
      <trkpt lat="42.82636" lon="-0.44427">
        <ele>2123</ele>
        <time>2022-03-27T08:48:46Z</time>
      </trkpt>
      <trkpt lat="42.82652" lon="-0.44438">
        <ele>2128</ele>
        <time>2022-03-27T08:49:08Z</time>
      </trkpt>
      <trkpt lat="42.8267" lon="-0.44446">
        <ele>2127.85</ele>
        <time>2022-03-27T08:49:33Z</time>
      </trkpt>
      <trkpt lat="42.82688" lon="-0.44455">
        <ele>2128</ele>
        <time>2022-03-27T08:49:56Z</time>
      </trkpt>
      <trkpt lat="42.82704" lon="-0.44466">
        <ele>2141</ele>
        <time>2022-03-27T08:50:20Z</time>
      </trkpt>
      <trkpt lat="42.8272" lon="-0.44479">
        <ele>2133</ele>
        <time>2022-03-27T08:50:47Z</time>
      </trkpt>
      <trkpt lat="42.82737" lon="-0.44488">
        <ele>2147</ele>
        <time>2022-03-27T08:51:04Z</time>
      </trkpt>
      <trkpt lat="42.82748" lon="-0.44506">
        <ele>2140</ele>
        <time>2022-03-27T08:51:33Z</time>
      </trkpt>
      <trkpt lat="42.82761" lon="-0.44526">
        <ele>2157</ele>
        <time>2022-03-27T08:52:03Z</time>
      </trkpt>
      <trkpt lat="42.82774" lon="-0.44544">
        <ele>2152</ele>
        <time>2022-03-27T08:52:32Z</time>
      </trkpt>
      <trkpt lat="42.82783" lon="-0.44567">
        <ele>2166</ele>
        <time>2022-03-27T08:53:10Z</time>
      </trkpt>
      <trkpt lat="42.82791" lon="-0.4459">
        <ele>2163</ele>
        <time>2022-03-27T08:53:39Z</time>
      </trkpt>
      <trkpt lat="42.82797" lon="-0.44614">
        <ele>2159.03</ele>
        <time>2022-03-27T08:54:04Z</time>
      </trkpt>
      <trkpt lat="42.82807" lon="-0.44636">
        <ele>2172.3</ele>
        <time>2022-03-27T08:54:32Z</time>
      </trkpt>
      <trkpt lat="42.82815" lon="-0.44658">
        <ele>2176</ele>
        <time>2022-03-27T08:55:08Z</time>
      </trkpt>
      <trkpt lat="42.82823" lon="-0.4468">
        <ele>2173</ele>
        <time>2022-03-27T08:55:36Z</time>
      </trkpt>
      <trkpt lat="42.82831" lon="-0.44703">
        <ele>2171</ele>
        <time>2022-03-27T08:56:09Z</time>
      </trkpt>
      <trkpt lat="42.82839" lon="-0.44726">
        <ele>2181.05</ele>
        <time>2022-03-27T08:56:34Z</time>
      </trkpt>
      <trkpt lat="42.8285" lon="-0.44746">
        <ele>2181</ele>
        <time>2022-03-27T08:56:57Z</time>
      </trkpt>
      <trkpt lat="42.82861" lon="-0.44766">
        <ele>2176</ele>
        <time>2022-03-27T08:57:22Z</time>
      </trkpt>
      <trkpt lat="42.82871" lon="-0.44786">
        <ele>2185</ele>
        <time>2022-03-27T08:57:46Z</time>
      </trkpt>
      <trkpt lat="42.82881" lon="-0.44807">
        <ele>2184.03</ele>
        <time>2022-03-27T08:58:14Z</time>
      </trkpt>
      <trkpt lat="42.82889" lon="-0.4483">
        <ele>2191.7</ele>
        <time>2022-03-27T08:58:42Z</time>
      </trkpt>
      <trkpt lat="42.82897" lon="-0.44853">
        <ele>2192</ele>
        <time>2022-03-27T08:59:11Z</time>
      </trkpt>
      <trkpt lat="42.82907" lon="-0.44873">
        <ele>2192</ele>
        <time>2022-03-27T08:59:44Z</time>
      </trkpt>
      <trkpt lat="42.8292" lon="-0.44892">
        <ele>2195.03</ele>
        <time>2022-03-27T09:00:14Z</time>
      </trkpt>
      <trkpt lat="42.82933" lon="-0.44909">
        <ele>2195</ele>
        <time>2022-03-27T09:00:33Z</time>
      </trkpt>
      <trkpt lat="42.82945" lon="-0.44928">
        <ele>2186.72</ele>
        <time>2022-03-27T09:00:54Z</time>
      </trkpt>
      <trkpt lat="42.8295" lon="-0.44952">
        <ele>2188</ele>
        <time>2022-03-27T09:01:54Z</time>
      </trkpt>
      <trkpt lat="42.82953" lon="-0.44977">
        <ele>2188</ele>
        <time>2022-03-27T09:02:14Z</time>
      </trkpt>
      <trkpt lat="42.82959" lon="-0.45001">
        <ele>2188</ele>
        <time>2022-03-27T09:02:38Z</time>
      </trkpt>
      <trkpt lat="42.82961" lon="-0.45026">
        <ele>2188</ele>
        <time>2022-03-27T09:03:01Z</time>
      </trkpt>
      <trkpt lat="42.82966" lon="-0.4505">
        <ele>2188</ele>
        <time>2022-03-27T09:03:22Z</time>
      </trkpt>
      <trkpt lat="42.82969" lon="-0.45076">
        <ele>2186</ele>
        <time>2022-03-27T09:03:42Z</time>
      </trkpt>
      <trkpt lat="42.82974" lon="-0.45099">
        <ele>2169</ele>
        <time>2022-03-27T09:04:02Z</time>
      </trkpt>
      <trkpt lat="42.82985" lon="-0.45121">
        <ele>2169</ele>
        <time>2022-03-27T09:04:26Z</time>
      </trkpt>
      <trkpt lat="42.82998" lon="-0.45142">
        <ele>2169</ele>
        <time>2022-03-27T09:04:35Z</time>
      </trkpt>
      <trkpt lat="42.83009" lon="-0.45162">
        <ele>2166</ele>
        <time>2022-03-27T09:04:46Z</time>
      </trkpt>
      <trkpt lat="42.83022" lon="-0.45178">
        <ele>2170</ele>
        <time>2022-03-27T09:05:23Z</time>
      </trkpt>
      <trkpt lat="42.83039" lon="-0.45188">
        <ele>2169</ele>
        <time>2022-03-27T09:05:55Z</time>
      </trkpt>
      <trkpt lat="42.83054" lon="-0.45203">
        <ele>2177</ele>
        <time>2022-03-27T09:06:15Z</time>
      </trkpt>
      <trkpt lat="42.83065" lon="-0.45223">
        <ele>2178.46</ele>
        <time>2022-03-27T09:08:24Z</time>
      </trkpt>
      <trkpt lat="42.83071" lon="-0.45247">
        <ele>2179</ele>
        <time>2022-03-27T09:08:45Z</time>
      </trkpt>
      <trkpt lat="42.83078" lon="-0.45271">
        <ele>2182</ele>
        <time>2022-03-27T09:09:05Z</time>
      </trkpt>
      <trkpt lat="42.83083" lon="-0.45295">
        <ele>2184</ele>
        <time>2022-03-27T09:09:26Z</time>
      </trkpt>
      <trkpt lat="42.83086" lon="-0.4532">
        <ele>2187</ele>
        <time>2022-03-27T09:09:44Z</time>
      </trkpt>
      <trkpt lat="42.83087" lon="-0.45345">
        <ele>2187</ele>
        <time>2022-03-27T09:10:07Z</time>
      </trkpt>
      <trkpt lat="42.83088" lon="-0.4537">
        <ele>2186</ele>
        <time>2022-03-27T09:19:31Z</time>
      </trkpt>
      <trkpt lat="42.83095" lon="-0.45395">
        <ele>2182.36</ele>
        <time>2022-03-27T09:19:40Z</time>
      </trkpt>
      <trkpt lat="42.83103" lon="-0.45421">
        <ele>2179.9</ele>
        <time>2022-03-27T09:19:46Z</time>
      </trkpt>
      <trkpt lat="42.83114" lon="-0.45443">
        <ele>2182.64</ele>
        <time>2022-03-27T09:20:10Z</time>
      </trkpt>
      <trkpt lat="42.83125" lon="-0.45463">
        <ele>2169.03</ele>
        <time>2022-03-27T09:20:15Z</time>
      </trkpt>
      <trkpt lat="42.83133" lon="-0.4549">
        <ele>2157.1</ele>
        <time>2022-03-27T09:20:21Z</time>
      </trkpt>
      <trkpt lat="42.83148" lon="-0.45506">
        <ele>2154.18</ele>
        <time>2022-03-27T09:20:25Z</time>
      </trkpt>
      <trkpt lat="42.83155" lon="-0.45529">
        <ele>2145.31</ele>
        <time>2022-03-27T09:20:29Z</time>
      </trkpt>
      <trkpt lat="42.83152" lon="-0.45555">
        <ele>2142.03</ele>
        <time>2022-03-27T09:20:33Z</time>
      </trkpt>
      <trkpt lat="42.83147" lon="-0.45581">
        <ele>2136</ele>
        <time>2022-03-27T09:20:52Z</time>
      </trkpt>
      <trkpt lat="42.83163" lon="-0.45594">
        <ele>2131.01</ele>
        <time>2022-03-27T09:20:58Z</time>
      </trkpt>
      <trkpt lat="42.8316" lon="-0.45623">
        <ele>2122.24</ele>
        <time>2022-03-27T09:21:03Z</time>
      </trkpt>
      <trkpt lat="42.83149" lon="-0.45643">
        <ele>2113</ele>
        <time>2022-03-27T09:21:36Z</time>
      </trkpt>
      <trkpt lat="42.83134" lon="-0.45669">
        <ele>2102.85</ele>
        <time>2022-03-27T09:21:41Z</time>
      </trkpt>
      <trkpt lat="42.83135" lon="-0.45696">
        <ele>2096.64</ele>
        <time>2022-03-27T09:21:45Z</time>
      </trkpt>
      <trkpt lat="42.83139" lon="-0.45723">
        <ele>2086.44</ele>
        <time>2022-03-27T09:21:48Z</time>
      </trkpt>
      <trkpt lat="42.83136" lon="-0.4575">
        <ele>2087.99</ele>
        <time>2022-03-27T09:21:52Z</time>
      </trkpt>
      <trkpt lat="42.8312" lon="-0.45764">
        <ele>2080.02</ele>
        <time>2022-03-27T09:21:57Z</time>
      </trkpt>
      <trkpt lat="42.83115" lon="-0.45789">
        <ele>2073.06</ele>
        <time>2022-03-27T09:22:05Z</time>
      </trkpt>
      <trkpt lat="42.83104" lon="-0.45821">
        <ele>2064.81</ele>
        <time>2022-03-27T09:22:09Z</time>
      </trkpt>
      <trkpt lat="42.83107" lon="-0.45849">
        <ele>2058.17</ele>
        <time>2022-03-27T09:22:13Z</time>
      </trkpt>
      <trkpt lat="42.83104" lon="-0.45876">
        <ele>2046.96</ele>
        <time>2022-03-27T09:24:00Z</time>
      </trkpt>
      <trkpt lat="42.83091" lon="-0.45894">
        <ele>2040.7</ele>
        <time>2022-03-27T09:24:04Z</time>
      </trkpt>
      <trkpt lat="42.83105" lon="-0.45911">
        <ele>2038</ele>
        <time>2022-03-27T09:24:10Z</time>
      </trkpt>
      <trkpt lat="42.8311" lon="-0.45944">
        <ele>2033.14</ele>
        <time>2022-03-27T09:24:14Z</time>
      </trkpt>
      <trkpt lat="42.8311" lon="-0.45974">
        <ele>2028.22</ele>
        <time>2022-03-27T09:24:18Z</time>
      </trkpt>
      <trkpt lat="42.83112" lon="-0.46005">
        <ele>2021.4</ele>
        <time>2022-03-27T09:24:23Z</time>
      </trkpt>
      <trkpt lat="42.83129" lon="-0.46012">
        <ele>2019</ele>
        <time>2022-03-27T09:24:49Z</time>
      </trkpt>
      <trkpt lat="42.83149" lon="-0.46014">
        <ele>1997.18</ele>
        <time>2022-03-27T09:24:55Z</time>
      </trkpt>
      <trkpt lat="42.83161" lon="-0.46036">
        <ele>1996.09</ele>
        <time>2022-03-27T09:25:03Z</time>
      </trkpt>
      <trkpt lat="42.83164" lon="-0.46066">
        <ele>1999.64</ele>
        <time>2022-03-27T09:25:07Z</time>
      </trkpt>
      <trkpt lat="42.83174" lon="-0.46089">
        <ele>1986.86</ele>
        <time>2022-03-27T09:25:12Z</time>
      </trkpt>
      <trkpt lat="42.83187" lon="-0.46069">
        <ele>1984.01</ele>
        <time>2022-03-27T09:25:18Z</time>
      </trkpt>
      <trkpt lat="42.83206" lon="-0.46062">
        <ele>1969.41</ele>
        <time>2022-03-27T09:25:23Z</time>
      </trkpt>
      <trkpt lat="42.83226" lon="-0.46075">
        <ele>1962.7</ele>
        <time>2022-03-27T09:25:27Z</time>
      </trkpt>
      <trkpt lat="42.83248" lon="-0.46081">
        <ele>1959.56</ele>
        <time>2022-03-27T09:25:33Z</time>
      </trkpt>
      <trkpt lat="42.83253" lon="-0.46109">
        <ele>1948.2</ele>
        <time>2022-03-27T09:26:18Z</time>
      </trkpt>
      <trkpt lat="42.83252" lon="-0.46137">
        <ele>1941.06</ele>
        <time>2022-03-27T09:26:22Z</time>
      </trkpt>
      <trkpt lat="42.83259" lon="-0.46162">
        <ele>1934.02</ele>
        <time>2022-03-27T09:26:27Z</time>
      </trkpt>
      <trkpt lat="42.83275" lon="-0.46176">
        <ele>1924.27</ele>
        <time>2022-03-27T09:26:31Z</time>
      </trkpt>
      <trkpt lat="42.83298" lon="-0.46174">
        <ele>1926.98</ele>
        <time>2022-03-27T09:26:35Z</time>
      </trkpt>
      <trkpt lat="42.83305" lon="-0.46197">
        <ele>1925.4</ele>
        <time>2022-03-27T09:26:40Z</time>
      </trkpt>
      <trkpt lat="42.83317" lon="-0.46216">
        <ele>1928.97</ele>
        <time>2022-03-27T09:26:44Z</time>
      </trkpt>
      <trkpt lat="42.83314" lon="-0.46243">
        <ele>1923</ele>
        <time>2022-03-27T09:27:27Z</time>
      </trkpt>
      <trkpt lat="42.83317" lon="-0.46268">
        <ele>1919.03</ele>
        <time>2022-03-27T09:27:32Z</time>
      </trkpt>
      <trkpt lat="42.83317" lon="-0.46297">
        <ele>1915.03</ele>
        <time>2022-03-27T09:27:37Z</time>
      </trkpt>
      <trkpt lat="42.83323" lon="-0.46321">
        <ele>1910.04</ele>
        <time>2022-03-27T09:28:48Z</time>
      </trkpt>
      <trkpt lat="42.83319" lon="-0.46349">
        <ele>1904.05</ele>
        <time>2022-03-27T09:28:54Z</time>
      </trkpt>
      <trkpt lat="42.83316" lon="-0.46374">
        <ele>1897.02</ele>
        <time>2022-03-27T09:29:02Z</time>
      </trkpt>
      <trkpt lat="42.83313" lon="-0.46399">
        <ele>1886.09</ele>
        <time>2022-03-27T09:29:10Z</time>
      </trkpt>
      <trkpt lat="42.83312" lon="-0.46427">
        <ele>1875.08</ele>
        <time>2022-03-27T09:29:17Z</time>
      </trkpt>
      <trkpt lat="42.83319" lon="-0.46454">
        <ele>1867.63</ele>
        <time>2022-03-27T09:29:22Z</time>
      </trkpt>
      <trkpt lat="42.83331" lon="-0.46479">
        <ele>1861.55</ele>
        <time>2022-03-27T09:29:26Z</time>
      </trkpt>
      <trkpt lat="42.83348" lon="-0.46496">
        <ele>1860</ele>
        <time>2022-03-27T09:30:09Z</time>
      </trkpt>
      <trkpt lat="42.83366" lon="-0.46508">
        <ele>1854.82</ele>
        <time>2022-03-27T09:30:13Z</time>
      </trkpt>
      <trkpt lat="42.83385" lon="-0.46517">
        <ele>1855</ele>
        <time>2022-03-27T09:30:17Z</time>
      </trkpt>
      <trkpt lat="42.83382" lon="-0.46545">
        <ele>1847.01</ele>
        <time>2022-03-27T09:30:25Z</time>
      </trkpt>
      <trkpt lat="42.83364" lon="-0.4656">
        <ele>1836.3</ele>
        <time>2022-03-27T09:30:34Z</time>
      </trkpt>
      <trkpt lat="42.83346" lon="-0.46567">
        <ele>1827.01</ele>
        <time>2022-03-27T09:30:40Z</time>
      </trkpt>
      <trkpt lat="42.83351" lon="-0.46593">
        <ele>1815.32</ele>
        <time>2022-03-27T09:30:45Z</time>
      </trkpt>
      <trkpt lat="42.83348" lon="-0.46623">
        <ele>1812.27</ele>
        <time>2022-03-27T09:30:50Z</time>
      </trkpt>
      <trkpt lat="42.83352" lon="-0.46647">
        <ele>1809.08</ele>
        <time>2022-03-27T09:30:55Z</time>
      </trkpt>
      <trkpt lat="42.83337" lon="-0.46668">
        <ele>1807.6</ele>
        <time>2022-03-27T09:31:44Z</time>
      </trkpt>
      <trkpt lat="42.83326" lon="-0.46688">
        <ele>1806.01</ele>
        <time>2022-03-27T09:31:48Z</time>
      </trkpt>
      <trkpt lat="42.83318" lon="-0.46714">
        <ele>1805.01</ele>
        <time>2022-03-27T09:31:53Z</time>
      </trkpt>
      <trkpt lat="42.833" lon="-0.46716">
        <ele>1797.72</ele>
        <time>2022-03-27T09:31:58Z</time>
      </trkpt>
      <trkpt lat="42.83305" lon="-0.46741">
        <ele>1790.02</ele>
        <time>2022-03-27T09:32:30Z</time>
      </trkpt>
      <trkpt lat="42.83301" lon="-0.46769">
        <ele>1784.05</ele>
        <time>2022-03-27T09:32:35Z</time>
      </trkpt>
      <trkpt lat="42.83288" lon="-0.46791">
        <ele>1779.04</ele>
        <time>2022-03-27T09:32:47Z</time>
      </trkpt>
      <trkpt lat="42.83293" lon="-0.46818">
        <ele>1773.54</ele>
        <time>2022-03-27T09:32:52Z</time>
      </trkpt>
      <trkpt lat="42.83288" lon="-0.46844">
        <ele>1769.36</ele>
        <time>2022-03-27T09:32:57Z</time>
      </trkpt>
      <trkpt lat="42.83275" lon="-0.46864">
        <ele>1757.77</ele>
        <time>2022-03-27T09:33:04Z</time>
      </trkpt>
      <trkpt lat="42.83258" lon="-0.46872">
        <ele>1757</ele>
        <time>2022-03-27T09:33:15Z</time>
      </trkpt>
      <trkpt lat="42.8324" lon="-0.46881">
        <ele>1755</ele>
        <time>2022-03-27T09:33:24Z</time>
      </trkpt>
      <trkpt lat="42.83226" lon="-0.46866">
        <ele>1755</ele>
        <time>2022-03-27T09:34:21Z</time>
      </trkpt>
      <trkpt lat="42.8321" lon="-0.46878">
        <ele>1752.02</ele>
        <time>2022-03-27T09:34:27Z</time>
      </trkpt>
      <trkpt lat="42.83195" lon="-0.46893">
        <ele>1747.14</ele>
        <time>2022-03-27T09:34:34Z</time>
      </trkpt>
      <trkpt lat="42.83185" lon="-0.46915">
        <ele>1739</ele>
        <time>2022-03-27T09:34:42Z</time>
      </trkpt>
      <trkpt lat="42.8317" lon="-0.46936">
        <ele>1733.05</ele>
        <time>2022-03-27T09:34:46Z</time>
      </trkpt>
      <trkpt lat="42.83155" lon="-0.46951">
        <ele>1734</ele>
        <time>2022-03-27T09:34:57Z</time>
      </trkpt>
      <trkpt lat="42.83138" lon="-0.46969">
        <ele>1736.1</ele>
        <time>2022-03-27T09:36:53Z</time>
      </trkpt>
      <trkpt lat="42.83123" lon="-0.46988">
        <ele>1734.01</ele>
        <time>2022-03-27T09:36:58Z</time>
      </trkpt>
      <trkpt lat="42.8311" lon="-0.47008">
        <ele>1730.81</ele>
        <time>2022-03-27T09:37:05Z</time>
      </trkpt>
      <trkpt lat="42.83095" lon="-0.47022">
        <ele>1731</ele>
        <time>2022-03-27T09:37:20Z</time>
      </trkpt>
      <trkpt lat="42.83077" lon="-0.47022">
        <ele>1729.05</ele>
        <time>2022-03-27T09:37:31Z</time>
      </trkpt>
      <trkpt lat="42.83058" lon="-0.47013">
        <ele>1729</ele>
        <time>2022-03-27T09:37:37Z</time>
      </trkpt>
      <trkpt lat="42.8304" lon="-0.47014">
        <ele>1728</ele>
        <time>2022-03-27T09:38:35Z</time>
      </trkpt>
      <trkpt lat="42.83032" lon="-0.46992">
        <ele>1730</ele>
        <time>2022-03-27T09:38:57Z</time>
      </trkpt>
      <trkpt lat="42.83018" lon="-0.46976">
        <ele>1729</ele>
        <time>2022-03-27T09:39:21Z</time>
      </trkpt>
      <trkpt lat="42.83" lon="-0.46973">
        <ele>1731.8</ele>
        <time>2022-03-27T09:51:08Z</time>
      </trkpt>
      <trkpt lat="42.82983" lon="-0.46965">
        <ele>1730</ele>
        <time>2022-03-27T09:51:46Z</time>
      </trkpt>
      <trkpt lat="42.82975" lon="-0.46988">
        <ele>1733</ele>
        <time>2022-03-27T09:52:19Z</time>
      </trkpt>
      <trkpt lat="42.82957" lon="-0.46988">
        <ele>1739</ele>
        <time>2022-03-27T09:53:02Z</time>
      </trkpt>
      <trkpt lat="42.82942" lon="-0.47002">
        <ele>1757.28</ele>
        <time>2022-03-27T09:53:42Z</time>
      </trkpt>
      <trkpt lat="42.82925" lon="-0.46993">
        <ele>1750</ele>
        <time>2022-03-27T09:54:23Z</time>
      </trkpt>
      <trkpt lat="42.82908" lon="-0.46983">
        <ele>1762</ele>
        <time>2022-03-27T09:54:58Z</time>
      </trkpt>
      <trkpt lat="42.82891" lon="-0.46973">
        <ele>1762</ele>
        <time>2022-03-27T09:55:29Z</time>
      </trkpt>
      <trkpt lat="42.82875" lon="-0.46962">
        <ele>1770</ele>
        <time>2022-03-27T09:55:55Z</time>
      </trkpt>
      <trkpt lat="42.8286" lon="-0.46949">
        <ele>1782.97</ele>
        <time>2022-03-27T09:56:25Z</time>
      </trkpt>
      <trkpt lat="42.82845" lon="-0.46934">
        <ele>1776</ele>
        <time>2022-03-27T09:56:59Z</time>
      </trkpt>
      <trkpt lat="42.82827" lon="-0.46929">
        <ele>1785</ele>
        <time>2022-03-27T09:57:30Z</time>
      </trkpt>
      <trkpt lat="42.82808" lon="-0.4693">
        <ele>1785</ele>
        <time>2022-03-27T09:58:02Z</time>
      </trkpt>
      <trkpt lat="42.82797" lon="-0.46949">
        <ele>1803</ele>
        <time>2022-03-27T09:59:13Z</time>
      </trkpt>
      <trkpt lat="42.82779" lon="-0.46947">
        <ele>1803</ele>
        <time>2022-03-27T09:59:42Z</time>
      </trkpt>
      <trkpt lat="42.82766" lon="-0.46964">
        <ele>1810</ele>
        <time>2022-03-27T10:00:38Z</time>
      </trkpt>
      <trkpt lat="42.82748" lon="-0.46958">
        <ele>1819.99</ele>
        <time>2022-03-27T10:01:16Z</time>
      </trkpt>
      <trkpt lat="42.82745" lon="-0.46983">
        <ele>1827</ele>
        <time>2022-03-27T10:02:12Z</time>
      </trkpt>
      <trkpt lat="42.82728" lon="-0.46993">
        <ele>1827</ele>
        <time>2022-03-27T10:03:01Z</time>
      </trkpt>
      <trkpt lat="42.8271" lon="-0.46987">
        <ele>1833</ele>
        <time>2022-03-27T10:03:29Z</time>
      </trkpt>
      <trkpt lat="42.82691" lon="-0.46989">
        <ele>1846.89</ele>
        <time>2022-03-27T10:04:28Z</time>
      </trkpt>
      <trkpt lat="42.82673" lon="-0.46986">
        <ele>1847</ele>
        <time>2022-03-27T10:05:54Z</time>
      </trkpt>
      <trkpt lat="42.82655" lon="-0.46992">
        <ele>1863</ele>
        <time>2022-03-27T10:07:23Z</time>
      </trkpt>
      <trkpt lat="42.82642" lon="-0.4701">
        <ele>1874</ele>
        <time>2022-03-27T10:08:44Z</time>
      </trkpt>
      <trkpt lat="42.82624" lon="-0.47014">
        <ele>1883</ele>
        <time>2022-03-27T10:09:32Z</time>
      </trkpt>
      <trkpt lat="42.8261" lon="-0.4703">
        <ele>1891.5</ele>
        <time>2022-03-27T10:10:21Z</time>
      </trkpt>
      <trkpt lat="42.82597" lon="-0.47047">
        <ele>1893</ele>
        <time>2022-03-27T10:11:16Z</time>
      </trkpt>
      <trkpt lat="42.82579" lon="-0.47047">
        <ele>1910</ele>
        <time>2022-03-27T10:12:28Z</time>
      </trkpt>
      <trkpt lat="42.82562" lon="-0.47038">
        <ele>1910</ele>
        <time>2022-03-27T10:13:50Z</time>
      </trkpt>
      <trkpt lat="42.8255" lon="-0.47019">
        <ele>1924</ele>
        <time>2022-03-27T10:14:36Z</time>
      </trkpt>
      <trkpt lat="42.82534" lon="-0.47029">
        <ele>1925</ele>
        <time>2022-03-27T10:15:24Z</time>
      </trkpt>
      <trkpt lat="42.82519" lon="-0.47044">
        <ele>1935</ele>
        <time>2022-03-27T10:16:05Z</time>
      </trkpt>
      <trkpt lat="42.82502" lon="-0.47051">
        <ele>1935</ele>
        <time>2022-03-27T10:20:23Z</time>
      </trkpt>
      <trkpt lat="42.82491" lon="-0.47073">
        <ele>1949</ele>
        <time>2022-03-27T10:21:07Z</time>
      </trkpt>
      <trkpt lat="42.82474" lon="-0.47067">
        <ele>1949</ele>
        <time>2022-03-27T10:21:45Z</time>
      </trkpt>
      <trkpt lat="42.82457" lon="-0.47076">
        <ele>1957</ele>
        <time>2022-03-27T10:22:38Z</time>
      </trkpt>
      <trkpt lat="42.8244" lon="-0.47086">
        <ele>1976</ele>
        <time>2022-03-27T10:23:39Z</time>
      </trkpt>
      <trkpt lat="42.82425" lon="-0.47072">
        <ele>1970</ele>
        <time>2022-03-27T10:24:11Z</time>
      </trkpt>
      <trkpt lat="42.8241" lon="-0.47058">
        <ele>1983</ele>
        <time>2022-03-27T10:24:48Z</time>
      </trkpt>
      <trkpt lat="42.82392" lon="-0.4705">
        <ele>1980</ele>
        <time>2022-03-27T10:25:19Z</time>
      </trkpt>
      <trkpt lat="42.82375" lon="-0.47043">
        <ele>1988</ele>
        <time>2022-03-27T10:25:48Z</time>
      </trkpt>
      <trkpt lat="42.82357" lon="-0.47042">
        <ele>1998</ele>
        <time>2022-03-27T10:26:20Z</time>
      </trkpt>
      <trkpt lat="42.82338" lon="-0.47047">
        <ele>1998</ele>
        <time>2022-03-27T10:27:14Z</time>
      </trkpt>
      <trkpt lat="42.82323" lon="-0.47059">
        <ele>2005.99</ele>
        <time>2022-03-27T10:27:39Z</time>
      </trkpt>
      <trkpt lat="42.82305" lon="-0.47065">
        <ele>2010.2</ele>
        <time>2022-03-27T10:28:10Z</time>
      </trkpt>
      <trkpt lat="42.82287" lon="-0.47069">
        <ele>2012</ele>
        <time>2022-03-27T10:29:02Z</time>
      </trkpt>
      <trkpt lat="42.82275" lon="-0.47088">
        <ele>2025.96</ele>
        <time>2022-03-27T10:30:33Z</time>
      </trkpt>
      <trkpt lat="42.82262" lon="-0.47106">
        <ele>2026</ele>
        <time>2022-03-27T10:31:33Z</time>
      </trkpt>
      <trkpt lat="42.82258" lon="-0.4713">
        <ele>2039</ele>
        <time>2022-03-27T10:32:04Z</time>
      </trkpt>
      <trkpt lat="42.82252" lon="-0.47153">
        <ele>2051</ele>
        <time>2022-03-27T10:32:37Z</time>
      </trkpt>
      <trkpt lat="42.82247" lon="-0.47177">
        <ele>2046</ele>
        <time>2022-03-27T10:33:05Z</time>
      </trkpt>
      <trkpt lat="42.82237" lon="-0.47199">
        <ele>2054.99</ele>
        <time>2022-03-27T10:33:30Z</time>
      </trkpt>
      <trkpt lat="42.82232" lon="-0.47223">
        <ele>2060.6</ele>
        <time>2022-03-27T10:33:57Z</time>
      </trkpt>
      <trkpt lat="42.8223" lon="-0.47248">
        <ele>2063</ele>
        <time>2022-03-27T10:34:34Z</time>
      </trkpt>
      <trkpt lat="42.82223" lon="-0.47271">
        <ele>2067</ele>
        <time>2022-03-27T10:35:05Z</time>
      </trkpt>
      <trkpt lat="42.82209" lon="-0.47288">
        <ele>2055</ele>
        <time>2022-03-27T10:35:38Z</time>
      </trkpt>
      <trkpt lat="42.82196" lon="-0.47306">
        <ele>2060.6</ele>
        <time>2022-03-27T10:36:06Z</time>
      </trkpt>
      <trkpt lat="42.82185" lon="-0.47325">
        <ele>2060</ele>
        <time>2022-03-27T10:36:35Z</time>
      </trkpt>
      <trkpt lat="42.82169" lon="-0.47338">
        <ele>2058</ele>
        <time>2022-03-27T10:37:09Z</time>
      </trkpt>
      <trkpt lat="42.82154" lon="-0.47351">
        <ele>2068</ele>
        <time>2022-03-27T10:37:41Z</time>
      </trkpt>
      <trkpt lat="42.82142" lon="-0.4737">
        <ele>2068</ele>
        <time>2022-03-27T10:38:23Z</time>
      </trkpt>
      <trkpt lat="42.82132" lon="-0.47391">
        <ele>2084.64</ele>
        <time>2022-03-27T10:38:56Z</time>
      </trkpt>
      <trkpt lat="42.82122" lon="-0.47412">
        <ele>2085</ele>
        <time>2022-03-27T10:39:24Z</time>
      </trkpt>
      <trkpt lat="42.82114" lon="-0.47435">
        <ele>2087</ele>
        <time>2022-03-27T10:39:51Z</time>
      </trkpt>
      <trkpt lat="42.82111" lon="-0.47461">
        <ele>2094</ele>
        <time>2022-03-27T10:40:23Z</time>
      </trkpt>
      <trkpt lat="42.82108" lon="-0.47486">
        <ele>2096</ele>
        <time>2022-03-27T10:40:39Z</time>
      </trkpt>
      <trkpt lat="42.82105" lon="-0.47511">
        <ele>2098</ele>
        <time>2022-03-27T10:42:29Z</time>
      </trkpt>
      <trkpt lat="42.82101" lon="-0.47536">
        <ele>2100</ele>
        <time>2022-03-27T10:42:52Z</time>
      </trkpt>
      <trkpt lat="42.82099" lon="-0.47561">
        <ele>2105</ele>
        <time>2022-03-27T10:43:19Z</time>
      </trkpt>
      <trkpt lat="42.82103" lon="-0.47586">
        <ele>2109.55</ele>
        <time>2022-03-27T10:43:37Z</time>
      </trkpt>
      <trkpt lat="42.82101" lon="-0.47611">
        <ele>2110</ele>
        <time>2022-03-27T10:43:53Z</time>
      </trkpt>
      <trkpt lat="42.82093" lon="-0.47634">
        <ele>2115</ele>
        <time>2022-03-27T10:44:24Z</time>
      </trkpt>
      <trkpt lat="42.82085" lon="-0.47656">
        <ele>2121</ele>
        <time>2022-03-27T10:44:51Z</time>
      </trkpt>
      <trkpt lat="42.82079" lon="-0.4768">
        <ele>2117</ele>
        <time>2022-03-27T10:45:16Z</time>
      </trkpt>
      <trkpt lat="42.82068" lon="-0.47699">
        <ele>2125.99</ele>
        <time>2022-03-27T10:45:45Z</time>
      </trkpt>
      <trkpt lat="42.82056" lon="-0.47718">
        <ele>2126</ele>
        <time>2022-03-27T10:46:02Z</time>
      </trkpt>
      <trkpt lat="42.82041" lon="-0.47734">
        <ele>2130</ele>
        <time>2022-03-27T10:46:30Z</time>
      </trkpt>
      <trkpt lat="42.82028" lon="-0.47751">
        <ele>2140.01</ele>
        <time>2022-03-27T10:47:00Z</time>
      </trkpt>
      <trkpt lat="42.82021" lon="-0.47773">
        <ele>2133</ele>
        <time>2022-03-27T10:47:39Z</time>
      </trkpt>
      <trkpt lat="42.82013" lon="-0.47796">
        <ele>2139</ele>
        <time>2022-03-27T10:48:00Z</time>
      </trkpt>
      <trkpt lat="42.8201" lon="-0.47821">
        <ele>2145</ele>
        <time>2022-03-27T10:48:32Z</time>
      </trkpt>
      <trkpt lat="42.82005" lon="-0.47844">
        <ele>2145</ele>
        <time>2022-03-27T10:49:01Z</time>
      </trkpt>
      <trkpt lat="42.82" lon="-0.47868">
        <ele>2147.99</ele>
        <time>2022-03-27T10:49:20Z</time>
      </trkpt>
      <trkpt lat="42.81991" lon="-0.4789">
        <ele>2147</ele>
        <time>2022-03-27T10:49:45Z</time>
      </trkpt>
      <trkpt lat="42.81981" lon="-0.47911">
        <ele>2150</ele>
        <time>2022-03-27T10:50:03Z</time>
      </trkpt>
      <trkpt lat="42.81968" lon="-0.47929">
        <ele>2153</ele>
        <time>2022-03-27T10:50:29Z</time>
      </trkpt>
      <trkpt lat="42.81957" lon="-0.47949">
        <ele>2158.99</ele>
        <time>2022-03-27T10:50:54Z</time>
      </trkpt>
      <trkpt lat="42.81945" lon="-0.47969">
        <ele>2159</ele>
        <time>2022-03-27T10:51:22Z</time>
      </trkpt>
      <trkpt lat="42.8193" lon="-0.47985">
        <ele>2153</ele>
        <time>2022-03-27T10:51:42Z</time>
      </trkpt>
      <trkpt lat="42.81913" lon="-0.47995">
        <ele>2145.06</ele>
        <time>2022-03-27T10:52:05Z</time>
      </trkpt>
      <trkpt lat="42.81898" lon="-0.4801">
        <ele>2156</ele>
        <time>2022-03-27T10:52:26Z</time>
      </trkpt>
      <trkpt lat="42.8188" lon="-0.48016">
        <ele>2151</ele>
        <time>2022-03-27T10:52:53Z</time>
      </trkpt>
      <trkpt lat="42.81864" lon="-0.48028">
        <ele>2158</ele>
        <time>2022-03-27T10:53:23Z</time>
      </trkpt>
      <trkpt lat="42.81846" lon="-0.48036">
        <ele>2160</ele>
        <time>2022-03-27T10:54:20Z</time>
      </trkpt>
      <trkpt lat="42.81846" lon="-0.48062">
        <ele>2166.94</ele>
        <time>2022-03-27T10:54:58Z</time>
      </trkpt>
      <trkpt lat="42.81854" lon="-0.48084">
        <ele>2176.1</ele>
        <time>2022-03-27T10:55:29Z</time>
      </trkpt>
      <trkpt lat="42.81851" lon="-0.48109">
        <ele>2177</ele>
        <time>2022-03-27T10:56:38Z</time>
      </trkpt>
      <trkpt lat="42.81838" lon="-0.48127">
        <ele>2184</ele>
        <time>2022-03-27T10:57:18Z</time>
      </trkpt>
      <trkpt lat="42.81833" lon="-0.48151">
        <ele>2188</ele>
        <time>2022-03-27T10:58:22Z</time>
      </trkpt>
      <trkpt lat="42.81817" lon="-0.48164">
        <ele>2192</ele>
        <time>2022-03-27T10:58:47Z</time>
      </trkpt>
      <trkpt lat="42.818" lon="-0.48173">
        <ele>2207</ele>
        <time>2022-03-27T10:59:40Z</time>
      </trkpt>
      <trkpt lat="42.81783" lon="-0.48168">
        <ele>2207</ele>
        <time>2022-03-27T11:00:20Z</time>
      </trkpt>
      <trkpt lat="42.81765" lon="-0.48171">
        <ele>2215</ele>
        <time>2022-03-27T11:00:56Z</time>
      </trkpt>
      <trkpt lat="42.81747" lon="-0.48176">
        <ele>2221</ele>
        <time>2022-03-27T11:01:34Z</time>
      </trkpt>
      <trkpt lat="42.8173" lon="-0.48186">
        <ele>2221</ele>
        <time>2022-03-27T11:02:06Z</time>
      </trkpt>
      <trkpt lat="42.81715" lon="-0.482">
        <ele>2225.99</ele>
        <time>2022-03-27T11:02:24Z</time>
      </trkpt>
      <trkpt lat="42.81704" lon="-0.4822">
        <ele>2226</ele>
        <time>2022-03-27T11:03:05Z</time>
      </trkpt>
      <trkpt lat="42.81702" lon="-0.48244">
        <ele>2228</ele>
        <time>2022-03-27T11:03:58Z</time>
      </trkpt>
      <trkpt lat="42.81697" lon="-0.48268">
        <ele>2233</ele>
        <time>2022-03-27T11:04:36Z</time>
      </trkpt>
      <trkpt lat="42.81682" lon="-0.48282">
        <ele>2244</ele>
        <time>2022-03-27T11:05:05Z</time>
      </trkpt>
      <trkpt lat="42.81669" lon="-0.483">
        <ele>2244</ele>
        <time>2022-03-27T11:05:40Z</time>
      </trkpt>
      <trkpt lat="42.8166" lon="-0.48321">
        <ele>2253</ele>
        <time>2022-03-27T11:06:25Z</time>
      </trkpt>
      <trkpt lat="42.81654" lon="-0.48345">
        <ele>2256</ele>
        <time>2022-03-27T11:06:54Z</time>
      </trkpt>
      <trkpt lat="42.81649" lon="-0.48369">
        <ele>2261</ele>
        <time>2022-03-27T11:07:47Z</time>
      </trkpt>
      <trkpt lat="42.81638" lon="-0.48388">
        <ele>2266.95</ele>
        <time>2022-03-27T11:08:22Z</time>
      </trkpt>
      <trkpt lat="42.81631" lon="-0.48412">
        <ele>2274</ele>
        <time>2022-03-27T11:09:19Z</time>
      </trkpt>
      <trkpt lat="42.81627" lon="-0.48436">
        <ele>2277</ele>
        <time>2022-03-27T11:13:33Z</time>
      </trkpt>
      <trkpt lat="42.81623" lon="-0.48404">
        <ele>2274.08</ele>
        <time>2022-03-27T11:21:45Z</time>
      </trkpt>
      <trkpt lat="42.81626" lon="-0.48372">
        <ele>2267.19</ele>
        <time>2022-03-27T11:21:49Z</time>
      </trkpt>
      <trkpt lat="42.81639" lon="-0.48352">
        <ele>2258.05</ele>
        <time>2022-03-27T11:21:52Z</time>
      </trkpt>
      <trkpt lat="42.81655" lon="-0.48331">
        <ele>2253.96</ele>
        <time>2022-03-27T11:21:55Z</time>
      </trkpt>
      <trkpt lat="42.81666" lon="-0.48308">
        <ele>2253.03</ele>
        <time>2022-03-27T11:21:58Z</time>
      </trkpt>
      <trkpt lat="42.81668" lon="-0.4828">
        <ele>2244.24</ele>
        <time>2022-03-27T11:22:01Z</time>
      </trkpt>
      <trkpt lat="42.81672" lon="-0.4825">
        <ele>2237.61</ele>
        <time>2022-03-27T11:22:06Z</time>
      </trkpt>
      <trkpt lat="42.81691" lon="-0.4824">
        <ele>2237</ele>
        <time>2022-03-27T11:22:28Z</time>
      </trkpt>
      <trkpt lat="42.81702" lon="-0.48219">
        <ele>2226.84</ele>
        <time>2022-03-27T11:22:31Z</time>
      </trkpt>
      <trkpt lat="42.81722" lon="-0.48205">
        <ele>2226.01</ele>
        <time>2022-03-27T11:22:35Z</time>
      </trkpt>
      <trkpt lat="42.8174" lon="-0.48185">
        <ele>2221.12</ele>
        <time>2022-03-27T11:22:39Z</time>
      </trkpt>
      <trkpt lat="42.81748" lon="-0.48162">
        <ele>2217.5</ele>
        <time>2022-03-27T11:22:42Z</time>
      </trkpt>
      <trkpt lat="42.81765" lon="-0.48167">
        <ele>2213.85</ele>
        <time>2022-03-27T11:22:46Z</time>
      </trkpt>
      <trkpt lat="42.81755" lon="-0.48147">
        <ele>2211</ele>
        <time>2022-03-27T11:23:09Z</time>
      </trkpt>
      <trkpt lat="42.81748" lon="-0.48121">
        <ele>2207.38</ele>
        <time>2022-03-27T11:23:15Z</time>
      </trkpt>
      <trkpt lat="42.81768" lon="-0.48109">
        <ele>2194.43</ele>
        <time>2022-03-27T11:23:19Z</time>
      </trkpt>
      <trkpt lat="42.81776" lon="-0.48079">
        <ele>2181.6</ele>
        <time>2022-03-27T11:23:25Z</time>
      </trkpt>
      <trkpt lat="42.81782" lon="-0.48054">
        <ele>2167.51</ele>
        <time>2022-03-27T11:23:28Z</time>
      </trkpt>
      <trkpt lat="42.81795" lon="-0.48031">
        <ele>2166.01</ele>
        <time>2022-03-27T11:23:32Z</time>
      </trkpt>
      <trkpt lat="42.81811" lon="-0.48007">
        <ele>2153.73</ele>
        <time>2022-03-27T11:23:36Z</time>
      </trkpt>
      <trkpt lat="42.81829" lon="-0.48002">
        <ele>2153.02</ele>
        <time>2022-03-27T11:23:39Z</time>
      </trkpt>
      <trkpt lat="42.81848" lon="-0.47987">
        <ele>2143.23</ele>
        <time>2022-03-27T11:23:43Z</time>
      </trkpt>
      <trkpt lat="42.81865" lon="-0.47976">
        <ele>2143</ele>
        <time>2022-03-27T11:23:47Z</time>
      </trkpt>
      <trkpt lat="42.81879" lon="-0.4796">
        <ele>2133.9</ele>
        <time>2022-03-27T11:23:51Z</time>
      </trkpt>
      <trkpt lat="42.81891" lon="-0.47941">
        <ele>2125.52</ele>
        <time>2022-03-27T11:23:55Z</time>
      </trkpt>
      <trkpt lat="42.81897" lon="-0.47918">
        <ele>2125</ele>
        <time>2022-03-27T11:23:59Z</time>
      </trkpt>
      <trkpt lat="42.81915" lon="-0.47898">
        <ele>2117.22</ele>
        <time>2022-03-27T11:24:02Z</time>
      </trkpt>
      <trkpt lat="42.81926" lon="-0.47878">
        <ele>2119.46</ele>
        <time>2022-03-27T11:24:05Z</time>
      </trkpt>
      <trkpt lat="42.81938" lon="-0.47855">
        <ele>2112.63</ele>
        <time>2022-03-27T11:24:09Z</time>
      </trkpt>
      <trkpt lat="42.81934" lon="-0.47828">
        <ele>2109.2</ele>
        <time>2022-03-27T11:25:00Z</time>
      </trkpt>
      <trkpt lat="42.81933" lon="-0.47802">
        <ele>2105.91</ele>
        <time>2022-03-27T11:25:04Z</time>
      </trkpt>
      <trkpt lat="42.8193" lon="-0.47773">
        <ele>2100.81</ele>
        <time>2022-03-27T11:25:08Z</time>
      </trkpt>
      <trkpt lat="42.81933" lon="-0.47749">
        <ele>2094.85</ele>
        <time>2022-03-27T11:25:11Z</time>
      </trkpt>
      <trkpt lat="42.81927" lon="-0.47723">
        <ele>2093.01</ele>
        <time>2022-03-27T11:25:15Z</time>
      </trkpt>
      <trkpt lat="42.81926" lon="-0.47696">
        <ele>2086.19</ele>
        <time>2022-03-27T11:25:18Z</time>
      </trkpt>
      <trkpt lat="42.81926" lon="-0.47664">
        <ele>2080.44</ele>
        <time>2022-03-27T11:25:21Z</time>
      </trkpt>
      <trkpt lat="42.8192" lon="-0.47637">
        <ele>2077.21</ele>
        <time>2022-03-27T11:25:24Z</time>
      </trkpt>
      <trkpt lat="42.81914" lon="-0.47608">
        <ele>2070.96</ele>
        <time>2022-03-27T11:25:29Z</time>
      </trkpt>
      <trkpt lat="42.81911" lon="-0.47578">
        <ele>2069.31</ele>
        <time>2022-03-27T11:25:33Z</time>
      </trkpt>
      <trkpt lat="42.81902" lon="-0.47552">
        <ele>2066.91</ele>
        <time>2022-03-27T11:25:36Z</time>
      </trkpt>
      <trkpt lat="42.81895" lon="-0.47523">
        <ele>2063.91</ele>
        <time>2022-03-27T11:25:40Z</time>
      </trkpt>
      <trkpt lat="42.81875" lon="-0.47508">
        <ele>2057.16</ele>
        <time>2022-03-27T11:30:15Z</time>
      </trkpt>
      <trkpt lat="42.81871" lon="-0.47482">
        <ele>2053.01</ele>
        <time>2022-03-27T11:30:21Z</time>
      </trkpt>
      <trkpt lat="42.81866" lon="-0.47456">
        <ele>2041.1</ele>
        <time>2022-03-27T11:30:27Z</time>
      </trkpt>
      <trkpt lat="42.81854" lon="-0.47432">
        <ele>2050.73</ele>
        <time>2022-03-27T11:30:33Z</time>
      </trkpt>
      <trkpt lat="42.81843" lon="-0.47409">
        <ele>2040.99</ele>
        <time>2022-03-27T11:30:38Z</time>
      </trkpt>
      <trkpt lat="42.81851" lon="-0.47381">
        <ele>2031.81</ele>
        <time>2022-03-27T11:30:44Z</time>
      </trkpt>
      <trkpt lat="42.81857" lon="-0.47357">
        <ele>2021.34</ele>
        <time>2022-03-27T11:30:49Z</time>
      </trkpt>
      <trkpt lat="42.81858" lon="-0.47329">
        <ele>2018.31</ele>
        <time>2022-03-27T11:30:53Z</time>
      </trkpt>
      <trkpt lat="42.81865" lon="-0.47302">
        <ele>2007.08</ele>
        <time>2022-03-27T11:30:58Z</time>
      </trkpt>
      <trkpt lat="42.81872" lon="-0.47275">
        <ele>2000.5</ele>
        <time>2022-03-27T11:31:14Z</time>
      </trkpt>
      <trkpt lat="42.81879" lon="-0.4725">
        <ele>1999</ele>
        <time>2022-03-27T11:31:20Z</time>
      </trkpt>
      <trkpt lat="42.8188" lon="-0.47222">
        <ele>1988.15</ele>
        <time>2022-03-27T11:31:24Z</time>
      </trkpt>
      <trkpt lat="42.81874" lon="-0.47194">
        <ele>1982.51</ele>
        <time>2022-03-27T11:31:29Z</time>
      </trkpt>
      <trkpt lat="42.81859" lon="-0.47173">
        <ele>1976.8</ele>
        <time>2022-03-27T11:31:34Z</time>
      </trkpt>
      <trkpt lat="42.81855" lon="-0.47146">
        <ele>1968.2</ele>
        <time>2022-03-27T11:31:38Z</time>
      </trkpt>
      <trkpt lat="42.81837" lon="-0.47129">
        <ele>1960.22</ele>
        <time>2022-03-27T11:31:42Z</time>
      </trkpt>
      <trkpt lat="42.81831" lon="-0.47106">
        <ele>1953</ele>
        <time>2022-03-27T11:31:46Z</time>
      </trkpt>
      <trkpt lat="42.81838" lon="-0.47082">
        <ele>1942.57</ele>
        <time>2022-03-27T11:32:35Z</time>
      </trkpt>
      <trkpt lat="42.81848" lon="-0.47057">
        <ele>1939</ele>
        <time>2022-03-27T11:32:41Z</time>
      </trkpt>
      <trkpt lat="42.81864" lon="-0.47041">
        <ele>1929.55</ele>
        <time>2022-03-27T11:32:45Z</time>
      </trkpt>
      <trkpt lat="42.81861" lon="-0.4701">
        <ele>1926.37</ele>
        <time>2022-03-27T11:32:49Z</time>
      </trkpt>
      <trkpt lat="42.81863" lon="-0.46983">
        <ele>1918.14</ele>
        <time>2022-03-27T11:32:53Z</time>
      </trkpt>
      <trkpt lat="42.81866" lon="-0.46956">
        <ele>1915.08</ele>
        <time>2022-03-27T11:32:57Z</time>
      </trkpt>
      <trkpt lat="42.81864" lon="-0.46924">
        <ele>1915</ele>
        <time>2022-03-27T11:33:01Z</time>
      </trkpt>
      <trkpt lat="42.81858" lon="-0.469">
        <ele>1906.56</ele>
        <time>2022-03-27T11:33:04Z</time>
      </trkpt>
      <trkpt lat="42.8187" lon="-0.4688">
        <ele>1903.09</ele>
        <time>2022-03-27T11:33:08Z</time>
      </trkpt>
      <trkpt lat="42.81873" lon="-0.46854">
        <ele>1900.9</ele>
        <time>2022-03-27T11:33:12Z</time>
      </trkpt>
      <trkpt lat="42.81869" lon="-0.46823">
        <ele>1894.56</ele>
        <time>2022-03-27T11:33:15Z</time>
      </trkpt>
      <trkpt lat="42.8187" lon="-0.46794">
        <ele>1891.29</ele>
        <time>2022-03-27T11:33:18Z</time>
      </trkpt>
      <trkpt lat="42.81884" lon="-0.4678">
        <ele>1891.01</ele>
        <time>2022-03-27T11:33:21Z</time>
      </trkpt>
      <trkpt lat="42.81896" lon="-0.46754">
        <ele>1888.02</ele>
        <time>2022-03-27T11:33:25Z</time>
      </trkpt>
      <trkpt lat="42.81908" lon="-0.46731">
        <ele>1884.11</ele>
        <time>2022-03-27T11:33:28Z</time>
      </trkpt>
      <trkpt lat="42.81907" lon="-0.46695">
        <ele>1880.11</ele>
        <time>2022-03-27T11:33:31Z</time>
      </trkpt>
      <trkpt lat="42.81907" lon="-0.46662">
        <ele>1874.71</ele>
        <time>2022-03-27T11:33:34Z</time>
      </trkpt>
      <trkpt lat="42.8191" lon="-0.46633">
        <ele>1872.62</ele>
        <time>2022-03-27T11:33:37Z</time>
      </trkpt>
      <trkpt lat="42.81916" lon="-0.46609">
        <ele>1872.02</ele>
        <time>2022-03-27T11:33:40Z</time>
      </trkpt>
      <trkpt lat="42.81928" lon="-0.46584">
        <ele>1870</ele>
        <time>2022-03-27T11:33:45Z</time>
      </trkpt>
      <trkpt lat="42.81942" lon="-0.46559">
        <ele>1869</ele>
        <time>2022-03-27T11:33:50Z</time>
      </trkpt>
      <trkpt lat="42.81956" lon="-0.4654">
        <ele>1869</ele>
        <time>2022-03-27T11:33:55Z</time>
      </trkpt>
      <trkpt lat="42.81968" lon="-0.4652">
        <ele>1868.03</ele>
        <time>2022-03-27T11:34:01Z</time>
      </trkpt>
      <trkpt lat="42.8198" lon="-0.46498">
        <ele>1866.3</ele>
        <time>2022-03-27T11:34:10Z</time>
      </trkpt>
      <trkpt lat="42.81995" lon="-0.46479">
        <ele>1866</ele>
        <time>2022-03-27T11:34:20Z</time>
      </trkpt>
      <trkpt lat="42.82009" lon="-0.4646">
        <ele>1865</ele>
        <time>2022-03-27T11:34:29Z</time>
      </trkpt>
      <trkpt lat="42.82019" lon="-0.46439">
        <ele>1865</ele>
        <time>2022-03-27T11:34:38Z</time>
      </trkpt>
      <trkpt lat="42.82036" lon="-0.46426">
        <ele>1864.01</ele>
        <time>2022-03-27T11:34:47Z</time>
      </trkpt>
      <trkpt lat="42.82054" lon="-0.4642">
        <ele>1864</ele>
        <time>2022-03-27T11:45:32Z</time>
      </trkpt>
      <trkpt lat="42.8205" lon="-0.46395">
        <ele>1864</ele>
        <time>2022-03-27T12:08:42Z</time>
      </trkpt>
      <trkpt lat="42.82056" lon="-0.46371">
        <ele>1863.3</ele>
        <time>2022-03-27T12:09:15Z</time>
      </trkpt>
      <trkpt lat="42.82063" lon="-0.46348">
        <ele>1866</ele>
        <time>2022-03-27T12:09:39Z</time>
      </trkpt>
      <trkpt lat="42.82069" lon="-0.46325">
        <ele>1868</ele>
        <time>2022-03-27T12:10:14Z</time>
      </trkpt>
      <trkpt lat="42.82075" lon="-0.46302">
        <ele>1874</ele>
        <time>2022-03-27T12:10:47Z</time>
      </trkpt>
      <trkpt lat="42.82077" lon="-0.46277">
        <ele>1878.2</ele>
        <time>2022-03-27T12:11:23Z</time>
      </trkpt>
      <trkpt lat="42.82081" lon="-0.46252">
        <ele>1880</ele>
        <time>2022-03-27T12:11:58Z</time>
      </trkpt>
      <trkpt lat="42.82088" lon="-0.46229">
        <ele>1878</ele>
        <time>2022-03-27T12:12:29Z</time>
      </trkpt>
      <trkpt lat="42.82089" lon="-0.46203">
        <ele>1883</ele>
        <time>2022-03-27T12:12:51Z</time>
      </trkpt>
      <trkpt lat="42.82088" lon="-0.46178">
        <ele>1893</ele>
        <time>2022-03-27T12:13:22Z</time>
      </trkpt>
      <trkpt lat="42.82089" lon="-0.46153">
        <ele>1904</ele>
        <time>2022-03-27T12:13:43Z</time>
      </trkpt>
      <trkpt lat="42.82085" lon="-0.46128">
        <ele>1906</ele>
        <time>2022-03-27T12:14:00Z</time>
      </trkpt>
      <trkpt lat="42.82081" lon="-0.46103">
        <ele>1905</ele>
        <time>2022-03-27T12:14:19Z</time>
      </trkpt>
      <trkpt lat="42.82077" lon="-0.46078">
        <ele>1906</ele>
        <time>2022-03-27T12:14:38Z</time>
      </trkpt>
      <trkpt lat="42.8207" lon="-0.46055">
        <ele>1908.8</ele>
        <time>2022-03-27T12:15:01Z</time>
      </trkpt>
      <trkpt lat="42.82064" lon="-0.4603">
        <ele>1910</ele>
        <time>2022-03-27T12:15:27Z</time>
      </trkpt>
      <trkpt lat="42.82066" lon="-0.46005">
        <ele>1916</ele>
        <time>2022-03-27T12:15:59Z</time>
      </trkpt>
      <trkpt lat="42.82063" lon="-0.45981">
        <ele>1921</ele>
        <time>2022-03-27T12:16:23Z</time>
      </trkpt>
      <trkpt lat="42.82062" lon="-0.45955">
        <ele>1925</ele>
        <time>2022-03-27T12:16:51Z</time>
      </trkpt>
      <trkpt lat="42.82067" lon="-0.45932">
        <ele>1932</ele>
        <time>2022-03-27T12:17:40Z</time>
      </trkpt>
      <trkpt lat="42.82073" lon="-0.45908">
        <ele>1937</ele>
        <time>2022-03-27T12:18:11Z</time>
      </trkpt>
      <trkpt lat="42.8207" lon="-0.45882">
        <ele>1938</ele>
        <time>2022-03-27T12:18:34Z</time>
      </trkpt>
      <trkpt lat="42.82068" lon="-0.45858">
        <ele>1943.95</ele>
        <time>2022-03-27T12:19:05Z</time>
      </trkpt>
      <trkpt lat="42.82066" lon="-0.45833">
        <ele>1948.2</ele>
        <time>2022-03-27T12:19:38Z</time>
      </trkpt>
      <trkpt lat="42.82064" lon="-0.45808">
        <ele>1950</ele>
        <time>2022-03-27T12:20:17Z</time>
      </trkpt>
      <trkpt lat="42.82058" lon="-0.45785">
        <ele>1952</ele>
        <time>2022-03-27T12:20:51Z</time>
      </trkpt>
      <trkpt lat="42.82067" lon="-0.45763">
        <ele>1964</ele>
        <time>2022-03-27T12:22:08Z</time>
      </trkpt>
      <trkpt lat="42.82073" lon="-0.4574">
        <ele>1974</ele>
        <time>2022-03-27T12:22:32Z</time>
      </trkpt>
      <trkpt lat="42.82065" lon="-0.45717">
        <ele>1978</ele>
        <time>2022-03-27T12:23:07Z</time>
      </trkpt>
      <trkpt lat="42.82063" lon="-0.45692">
        <ele>1983.95</ele>
        <time>2022-03-27T12:23:48Z</time>
      </trkpt>
      <trkpt lat="42.82061" lon="-0.45667">
        <ele>1984</ele>
        <time>2022-03-27T12:24:18Z</time>
      </trkpt>
      <trkpt lat="42.82049" lon="-0.45649">
        <ele>1993</ele>
        <time>2022-03-27T12:24:55Z</time>
      </trkpt>
      <trkpt lat="42.82034" lon="-0.45636">
        <ele>1999</ele>
        <time>2022-03-27T12:25:25Z</time>
      </trkpt>
      <trkpt lat="42.82032" lon="-0.45611">
        <ele>2005.3</ele>
        <time>2022-03-27T12:26:18Z</time>
      </trkpt>
      <trkpt lat="42.82044" lon="-0.45592">
        <ele>2008</ele>
        <time>2022-03-27T12:27:03Z</time>
      </trkpt>
      <trkpt lat="42.82045" lon="-0.45567">
        <ele>2016</ele>
        <time>2022-03-27T12:27:51Z</time>
      </trkpt>
      <trkpt lat="42.82036" lon="-0.45545">
        <ele>2022</ele>
        <time>2022-03-27T12:28:22Z</time>
      </trkpt>
      <trkpt lat="42.8203" lon="-0.45521">
        <ele>2024</ele>
        <time>2022-03-27T12:28:48Z</time>
      </trkpt>
      <trkpt lat="42.82025" lon="-0.45497">
        <ele>2027.95</ele>
        <time>2022-03-27T12:29:15Z</time>
      </trkpt>
      <trkpt lat="42.82018" lon="-0.45474">
        <ele>2028</ele>
        <time>2022-03-27T12:29:47Z</time>
      </trkpt>
      <trkpt lat="42.82012" lon="-0.4545">
        <ele>2031</ele>
        <time>2022-03-27T12:30:29Z</time>
      </trkpt>
      <trkpt lat="42.82008" lon="-0.45425">
        <ele>2033</ele>
        <time>2022-03-27T12:30:56Z</time>
      </trkpt>
      <trkpt lat="42.8201" lon="-0.45401">
        <ele>2042</ele>
        <time>2022-03-27T12:31:41Z</time>
      </trkpt>
      <trkpt lat="42.82011" lon="-0.45376">
        <ele>2049</ele>
        <time>2022-03-27T12:32:16Z</time>
      </trkpt>
      <trkpt lat="42.82006" lon="-0.45352">
        <ele>2057</ele>
        <time>2022-03-27T12:33:02Z</time>
      </trkpt>
      <trkpt lat="42.81988" lon="-0.45347">
        <ele>2062</ele>
        <time>2022-03-27T12:33:44Z</time>
      </trkpt>
      <trkpt lat="42.8198" lon="-0.45324">
        <ele>2066</ele>
        <time>2022-03-27T12:34:35Z</time>
      </trkpt>
      <trkpt lat="42.81981" lon="-0.45299">
        <ele>2079</ele>
        <time>2022-03-27T12:35:17Z</time>
      </trkpt>
      <trkpt lat="42.81976" lon="-0.45275">
        <ele>2090.97</ele>
        <time>2022-03-27T12:35:57Z</time>
      </trkpt>
      <trkpt lat="42.81973" lon="-0.4525">
        <ele>2091</ele>
        <time>2022-03-27T12:43:04Z</time>
      </trkpt>
      <trkpt lat="42.8199" lon="-0.45234">
        <ele>2089</ele>
        <time>2022-03-27T12:43:52Z</time>
      </trkpt>
      <trkpt lat="42.82002" lon="-0.45213">
        <ele>2094.08</ele>
        <time>2022-03-27T12:43:57Z</time>
      </trkpt>
      <trkpt lat="42.8201" lon="-0.45191">
        <ele>2091.5</ele>
        <time>2022-03-27T12:44:02Z</time>
      </trkpt>
      <trkpt lat="42.82016" lon="-0.45167">
        <ele>2090</ele>
        <time>2022-03-27T12:44:09Z</time>
      </trkpt>
      <trkpt lat="42.82021" lon="-0.45142">
        <ele>2085</ele>
        <time>2022-03-27T12:44:18Z</time>
      </trkpt>
      <trkpt lat="42.82033" lon="-0.45121">
        <ele>2084</ele>
        <time>2022-03-27T12:44:52Z</time>
      </trkpt>
      <trkpt lat="42.82049" lon="-0.45108">
        <ele>2078.16</ele>
        <time>2022-03-27T12:45:01Z</time>
      </trkpt>
      <trkpt lat="42.82068" lon="-0.45098">
        <ele>2075.01</ele>
        <time>2022-03-27T12:45:09Z</time>
      </trkpt>
      <trkpt lat="42.82088" lon="-0.45091">
        <ele>2076.82</ele>
        <time>2022-03-27T12:45:14Z</time>
      </trkpt>
      <trkpt lat="42.82103" lon="-0.45074">
        <ele>2072</ele>
        <time>2022-03-27T12:45:23Z</time>
      </trkpt>
      <trkpt lat="42.82113" lon="-0.45053">
        <ele>2078.48</ele>
        <time>2022-03-27T12:45:30Z</time>
      </trkpt>
      <trkpt lat="42.82123" lon="-0.45032">
        <ele>2077</ele>
        <time>2022-03-27T12:45:41Z</time>
      </trkpt>
      <trkpt lat="42.82137" lon="-0.45015">
        <ele>2071</ele>
        <time>2022-03-27T12:45:49Z</time>
      </trkpt>
      <trkpt lat="42.82148" lon="-0.44994">
        <ele>2071.19</ele>
        <time>2022-03-27T12:45:58Z</time>
      </trkpt>
      <trkpt lat="42.8216" lon="-0.44975">
        <ele>2071</ele>
        <time>2022-03-27T12:46:06Z</time>
      </trkpt>
      <trkpt lat="42.82175" lon="-0.44958">
        <ele>2069.99</ele>
        <time>2022-03-27T12:46:16Z</time>
      </trkpt>
      <trkpt lat="42.8219" lon="-0.44941">
        <ele>2062.72</ele>
        <time>2022-03-27T12:47:23Z</time>
      </trkpt>
      <trkpt lat="42.82207" lon="-0.44926">
        <ele>2068</ele>
        <time>2022-03-27T12:47:30Z</time>
      </trkpt>
      <trkpt lat="42.82223" lon="-0.44913">
        <ele>2065.7</ele>
        <time>2022-03-27T12:47:39Z</time>
      </trkpt>
      <trkpt lat="42.82231" lon="-0.44889">
        <ele>2062.7</ele>
        <time>2022-03-27T12:47:49Z</time>
      </trkpt>
      <trkpt lat="42.82245" lon="-0.44867">
        <ele>2060</ele>
        <time>2022-03-27T12:47:56Z</time>
      </trkpt>
      <trkpt lat="42.82258" lon="-0.44847">
        <ele>2061.98</ele>
        <time>2022-03-27T12:48:01Z</time>
      </trkpt>
      <trkpt lat="42.82269" lon="-0.44824">
        <ele>2054.22</ele>
        <time>2022-03-27T12:48:07Z</time>
      </trkpt>
      <trkpt lat="42.82279" lon="-0.448">
        <ele>2053.72</ele>
        <time>2022-03-27T12:48:13Z</time>
      </trkpt>
      <trkpt lat="42.82292" lon="-0.44779">
        <ele>2056</ele>
        <time>2022-03-27T12:48:21Z</time>
      </trkpt>
      <trkpt lat="42.82303" lon="-0.44755">
        <ele>2048.01</ele>
        <time>2022-03-27T12:48:27Z</time>
      </trkpt>
      <trkpt lat="42.82311" lon="-0.44731">
        <ele>2052.91</ele>
        <time>2022-03-27T12:48:32Z</time>
      </trkpt>
      <trkpt lat="42.82314" lon="-0.44704">
        <ele>2049</ele>
        <time>2022-03-27T12:48:41Z</time>
      </trkpt>
      <trkpt lat="42.82317" lon="-0.44679">
        <ele>2047</ele>
        <time>2022-03-27T12:48:49Z</time>
      </trkpt>
      <trkpt lat="42.82315" lon="-0.44655">
        <ele>2046</ele>
        <time>2022-03-27T12:50:05Z</time>
      </trkpt>
      <trkpt lat="42.8231" lon="-0.44629">
        <ele>2046.99</ele>
        <time>2022-03-27T12:50:12Z</time>
      </trkpt>
      <trkpt lat="42.82292" lon="-0.44613">
        <ele>2031.53</ele>
        <time>2022-03-27T12:51:05Z</time>
      </trkpt>
      <trkpt lat="42.82274" lon="-0.44609">
        <ele>2023.14</ele>
        <time>2022-03-27T12:51:07Z</time>
      </trkpt>
      <trkpt lat="42.82252" lon="-0.44606">
        <ele>2020.28</ele>
        <time>2022-03-27T12:51:09Z</time>
      </trkpt>
      <trkpt lat="42.8223" lon="-0.44603">
        <ele>2014.57</ele>
        <time>2022-03-27T12:51:11Z</time>
      </trkpt>
      <trkpt lat="42.82212" lon="-0.446">
        <ele>2011.1</ele>
        <time>2022-03-27T12:51:14Z</time>
      </trkpt>
      <trkpt lat="42.82195" lon="-0.44589">
        <ele>2011</ele>
        <time>2022-03-27T12:51:44Z</time>
      </trkpt>
      <trkpt lat="42.82177" lon="-0.44589">
        <ele>2014</ele>
        <time>2022-03-27T12:52:09Z</time>
      </trkpt>
      <trkpt lat="42.82159" lon="-0.44594">
        <ele>2015</ele>
        <time>2022-03-27T12:52:33Z</time>
      </trkpt>
      <trkpt lat="42.82141" lon="-0.44586">
        <ele>2015</ele>
        <time>2022-03-27T12:52:54Z</time>
      </trkpt>
      <trkpt lat="42.8213" lon="-0.44567">
        <ele>2019</ele>
        <time>2022-03-27T12:53:24Z</time>
      </trkpt>
      <trkpt lat="42.82122" lon="-0.44544">
        <ele>2023</ele>
        <time>2022-03-27T12:53:56Z</time>
      </trkpt>
      <trkpt lat="42.82114" lon="-0.44521">
        <ele>2025</ele>
        <time>2022-03-27T12:54:26Z</time>
      </trkpt>
      <trkpt lat="42.8211" lon="-0.44497">
        <ele>2021.98</ele>
        <time>2022-03-27T12:54:49Z</time>
      </trkpt>
      <trkpt lat="42.82102" lon="-0.44474">
        <ele>2022</ele>
        <time>2022-03-27T12:55:19Z</time>
      </trkpt>
      <trkpt lat="42.82093" lon="-0.44451">
        <ele>2026</ele>
        <time>2022-03-27T12:55:46Z</time>
      </trkpt>
      <trkpt lat="42.82079" lon="-0.44434">
        <ele>2024</ele>
        <time>2022-03-27T12:56:00Z</time>
      </trkpt>
      <trkpt lat="42.8207" lon="-0.4441">
        <ele>2025.98</ele>
        <time>2022-03-27T12:56:16Z</time>
      </trkpt>
      <trkpt lat="42.82063" lon="-0.44387">
        <ele>2025.09</ele>
        <time>2022-03-27T12:56:25Z</time>
      </trkpt>
      <trkpt lat="42.82068" lon="-0.44361">
        <ele>2023.6</ele>
        <time>2022-03-27T12:56:38Z</time>
      </trkpt>
      <trkpt lat="42.82072" lon="-0.44336">
        <ele>2023</ele>
        <time>2022-03-27T12:56:46Z</time>
      </trkpt>
      <trkpt lat="42.82078" lon="-0.44312">
        <ele>2021</ele>
        <time>2022-03-27T12:56:56Z</time>
      </trkpt>
      <trkpt lat="42.8208" lon="-0.44285">
        <ele>2019</ele>
        <time>2022-03-27T12:57:30Z</time>
      </trkpt>
      <trkpt lat="42.82084" lon="-0.4426">
        <ele>2017.97</ele>
        <time>2022-03-27T12:57:39Z</time>
      </trkpt>
      <trkpt lat="42.82088" lon="-0.44234">
        <ele>2015.02</ele>
        <time>2022-03-27T12:57:46Z</time>
      </trkpt>
      <trkpt lat="42.82094" lon="-0.4421">
        <ele>2011.11</ele>
        <time>2022-03-27T12:57:51Z</time>
      </trkpt>
      <trkpt lat="42.82104" lon="-0.44184">
        <ele>2008.27</ele>
        <time>2022-03-27T12:57:56Z</time>
      </trkpt>
      <trkpt lat="42.82107" lon="-0.44158">
        <ele>2006.18</ele>
        <time>2022-03-27T12:58:02Z</time>
      </trkpt>
      <trkpt lat="42.82103" lon="-0.44131">
        <ele>2006</ele>
        <time>2022-03-27T12:58:09Z</time>
      </trkpt>
      <trkpt lat="42.82094" lon="-0.44107">
        <ele>2006.91</ele>
        <time>2022-03-27T12:58:16Z</time>
      </trkpt>
      <trkpt lat="42.82085" lon="-0.44084">
        <ele>2007</ele>
        <time>2022-03-27T12:58:23Z</time>
      </trkpt>
      <trkpt lat="42.82083" lon="-0.44057">
        <ele>2001</ele>
        <time>2022-03-27T12:58:32Z</time>
      </trkpt>
      <trkpt lat="42.82082" lon="-0.44032">
        <ele>1999</ele>
        <time>2022-03-27T12:58:54Z</time>
      </trkpt>
      <trkpt lat="42.82077" lon="-0.44008">
        <ele>1996.08</ele>
        <time>2022-03-27T12:58:57Z</time>
      </trkpt>
      <trkpt lat="42.82074" lon="-0.43983">
        <ele>1991.14</ele>
        <time>2022-03-27T12:59:00Z</time>
      </trkpt>
      <trkpt lat="42.82073" lon="-0.43957">
        <ele>1990.03</ele>
        <time>2022-03-27T12:59:04Z</time>
      </trkpt>
      <trkpt lat="42.82075" lon="-0.43929">
        <ele>1984.54</ele>
        <time>2022-03-27T12:59:08Z</time>
      </trkpt>
      <trkpt lat="42.82077" lon="-0.43901">
        <ele>1980.03</ele>
        <time>2022-03-27T12:59:13Z</time>
      </trkpt>
      <trkpt lat="42.82081" lon="-0.43875">
        <ele>1975.14</ele>
        <time>2022-03-27T12:59:18Z</time>
      </trkpt>
      <trkpt lat="42.82088" lon="-0.43847">
        <ele>1975.17</ele>
        <time>2022-03-27T12:59:24Z</time>
      </trkpt>
      <trkpt lat="42.82087" lon="-0.43821">
        <ele>1969.16</ele>
        <time>2022-03-27T12:59:30Z</time>
      </trkpt>
      <trkpt lat="42.82082" lon="-0.43794">
        <ele>1963.54</ele>
        <time>2022-03-27T12:59:33Z</time>
      </trkpt>
      <trkpt lat="42.82068" lon="-0.43776">
        <ele>1965.8</ele>
        <time>2022-03-27T12:59:41Z</time>
      </trkpt>
      <trkpt lat="42.82056" lon="-0.43755">
        <ele>1967</ele>
        <time>2022-03-27T12:59:47Z</time>
      </trkpt>
      <trkpt lat="42.82047" lon="-0.43731">
        <ele>1959.22</ele>
        <time>2022-03-27T12:59:50Z</time>
      </trkpt>
      <trkpt lat="42.82036" lon="-0.43706">
        <ele>1956.03</ele>
        <time>2022-03-27T12:59:54Z</time>
      </trkpt>
      <trkpt lat="42.82033" lon="-0.4368">
        <ele>1959.97</ele>
        <time>2022-03-27T13:00:00Z</time>
      </trkpt>
      <trkpt lat="42.82032" lon="-0.43655">
        <ele>1959.03</ele>
        <time>2022-03-27T13:00:06Z</time>
      </trkpt>
      <trkpt lat="42.82031" lon="-0.43627">
        <ele>1958</ele>
        <time>2022-03-27T13:00:15Z</time>
      </trkpt>
      <trkpt lat="42.82031" lon="-0.436">
        <ele>1956.02</ele>
        <time>2022-03-27T13:00:40Z</time>
      </trkpt>
      <trkpt lat="42.82031" lon="-0.43574">
        <ele>1952.11</ele>
        <time>2022-03-27T13:00:49Z</time>
      </trkpt>
      <trkpt lat="42.82038" lon="-0.43549">
        <ele>1948.36</ele>
        <time>2022-03-27T13:01:00Z</time>
      </trkpt>
      <trkpt lat="42.82046" lon="-0.43521">
        <ele>1944.36</ele>
        <time>2022-03-27T13:01:06Z</time>
      </trkpt>
      <trkpt lat="42.82049" lon="-0.43494">
        <ele>1940.36</ele>
        <time>2022-03-27T13:01:10Z</time>
      </trkpt>
      <trkpt lat="42.82049" lon="-0.43468">
        <ele>1940</ele>
        <time>2022-03-27T13:01:17Z</time>
      </trkpt>
      <trkpt lat="42.82051" lon="-0.43441">
        <ele>1937.9</ele>
        <time>2022-03-27T13:01:23Z</time>
      </trkpt>
      <trkpt lat="42.82052" lon="-0.43414">
        <ele>1935.61</ele>
        <time>2022-03-27T13:01:27Z</time>
      </trkpt>
      <trkpt lat="42.82045" lon="-0.43389">
        <ele>1935</ele>
        <time>2022-03-27T13:01:31Z</time>
      </trkpt>
      <trkpt lat="42.82032" lon="-0.43372">
        <ele>1935</ele>
        <time>2022-03-27T13:01:36Z</time>
      </trkpt>
      <trkpt lat="42.8202" lon="-0.4335">
        <ele>1931.99</ele>
        <time>2022-03-27T13:01:45Z</time>
      </trkpt>
      <trkpt lat="42.82014" lon="-0.43326">
        <ele>1932</ele>
        <time>2022-03-27T13:01:50Z</time>
      </trkpt>
      <trkpt lat="42.82005" lon="-0.43302">
        <ele>1932.91</ele>
        <time>2022-03-27T13:01:57Z</time>
      </trkpt>
      <trkpt lat="42.81998" lon="-0.43277">
        <ele>1924.24</ele>
        <time>2022-03-27T13:02:04Z</time>
      </trkpt>
      <trkpt lat="42.81988" lon="-0.43253">
        <ele>1924</ele>
        <time>2022-03-27T13:02:11Z</time>
      </trkpt>
      <trkpt lat="42.81979" lon="-0.4323">
        <ele>1926</ele>
        <time>2022-03-27T13:02:17Z</time>
      </trkpt>
      <trkpt lat="42.81972" lon="-0.43206">
        <ele>1926</ele>
        <time>2022-03-27T13:02:23Z</time>
      </trkpt>
      <trkpt lat="42.81969" lon="-0.43178">
        <ele>1915.01</ele>
        <time>2022-03-27T13:03:29Z</time>
      </trkpt>
      <trkpt lat="42.81956" lon="-0.43154">
        <ele>1910.04</ele>
        <time>2022-03-27T13:03:34Z</time>
      </trkpt>
      <trkpt lat="42.81952" lon="-0.43125">
        <ele>1904.54</ele>
        <time>2022-03-27T13:03:38Z</time>
      </trkpt>
      <trkpt lat="42.81935" lon="-0.43107">
        <ele>1900.93</ele>
        <time>2022-03-27T13:03:42Z</time>
      </trkpt>
      <trkpt lat="42.81932" lon="-0.43081">
        <ele>1897.21</ele>
        <time>2022-03-27T13:03:46Z</time>
      </trkpt>
      <trkpt lat="42.81923" lon="-0.43057">
        <ele>1896.01</ele>
        <time>2022-03-27T13:03:50Z</time>
      </trkpt>
      <trkpt lat="42.81923" lon="-0.43028">
        <ele>1891.04</ele>
        <time>2022-03-27T13:03:54Z</time>
      </trkpt>
      <trkpt lat="42.81918" lon="-0.43001">
        <ele>1887.01</ele>
        <time>2022-03-27T13:03:59Z</time>
      </trkpt>
      <trkpt lat="42.81906" lon="-0.42982">
        <ele>1882</ele>
        <time>2022-03-27T13:04:52Z</time>
      </trkpt>
      <trkpt lat="42.81901" lon="-0.42956">
        <ele>1877.04</ele>
        <time>2022-03-27T13:05:00Z</time>
      </trkpt>
      <trkpt lat="42.81908" lon="-0.42933">
        <ele>1870.06</ele>
        <time>2022-03-27T13:05:06Z</time>
      </trkpt>
      <trkpt lat="42.81923" lon="-0.42914">
        <ele>1868.19</ele>
        <time>2022-03-27T13:05:11Z</time>
      </trkpt>
      <trkpt lat="42.81928" lon="-0.42887">
        <ele>1865.6</ele>
        <time>2022-03-27T13:05:16Z</time>
      </trkpt>
      <trkpt lat="42.81909" lon="-0.4288">
        <ele>1856.24</ele>
        <time>2022-03-27T13:05:22Z</time>
      </trkpt>
      <trkpt lat="42.81914" lon="-0.42856">
        <ele>1852.36</ele>
        <time>2022-03-27T13:05:28Z</time>
      </trkpt>
      <trkpt lat="42.81901" lon="-0.42836">
        <ele>1852</ele>
        <time>2022-03-27T13:05:35Z</time>
      </trkpt>
      <trkpt lat="42.81888" lon="-0.42815">
        <ele>1840.6</ele>
        <time>2022-03-27T13:05:41Z</time>
      </trkpt>
      <trkpt lat="42.8187" lon="-0.42821">
        <ele>1837.1</ele>
        <time>2022-03-27T13:05:44Z</time>
      </trkpt>
      <trkpt lat="42.81857" lon="-0.428">
        <ele>1828.95</ele>
        <time>2022-03-27T13:05:49Z</time>
      </trkpt>
      <trkpt lat="42.81847" lon="-0.42779">
        <ele>1828.03</ele>
        <time>2022-03-27T13:05:52Z</time>
      </trkpt>
      <trkpt lat="42.81852" lon="-0.42755">
        <ele>1826</ele>
        <time>2022-03-27T13:06:37Z</time>
      </trkpt>
      <trkpt lat="42.81862" lon="-0.42731">
        <ele>1826.8</ele>
        <time>2022-03-27T13:06:44Z</time>
      </trkpt>
      <trkpt lat="42.81846" lon="-0.42713">
        <ele>1819.16</ele>
        <time>2022-03-27T13:06:48Z</time>
      </trkpt>
      <trkpt lat="42.81826" lon="-0.42707">
        <ele>1816.27</ele>
        <time>2022-03-27T13:06:52Z</time>
      </trkpt>
      <trkpt lat="42.81808" lon="-0.427">
        <ele>1816</ele>
        <time>2022-03-27T13:06:56Z</time>
      </trkpt>
      <trkpt lat="42.81787" lon="-0.42696">
        <ele>1812.03</ele>
        <time>2022-03-27T13:07:00Z</time>
      </trkpt>
      <trkpt lat="42.81778" lon="-0.42668">
        <ele>1808.01</ele>
        <time>2022-03-27T13:07:05Z</time>
      </trkpt>
      <trkpt lat="42.81759" lon="-0.42663">
        <ele>1802.18</ele>
        <time>2022-03-27T13:07:10Z</time>
      </trkpt>
      <trkpt lat="42.81736" lon="-0.42657">
        <ele>1796.16</ele>
        <time>2022-03-27T13:07:14Z</time>
      </trkpt>
      <trkpt lat="42.81718" lon="-0.42663">
        <ele>1793.27</ele>
        <time>2022-03-27T13:07:19Z</time>
      </trkpt>
      <trkpt lat="42.81698" lon="-0.4266">
        <ele>1793</ele>
        <time>2022-03-27T13:07:25Z</time>
      </trkpt>
      <trkpt lat="42.8168" lon="-0.42653">
        <ele>1785.06</ele>
        <time>2022-03-27T13:07:29Z</time>
      </trkpt>
      <trkpt lat="42.81664" lon="-0.42665">
        <ele>1781.5</ele>
        <time>2022-03-27T13:07:33Z</time>
      </trkpt>
      <trkpt lat="42.81647" lon="-0.42649">
        <ele>1780</ele>
        <time>2022-03-27T13:07:38Z</time>
      </trkpt>
      <trkpt lat="42.8163" lon="-0.4266">
        <ele>1772.22</ele>
        <time>2022-03-27T13:07:44Z</time>
      </trkpt>
      <trkpt lat="42.81617" lon="-0.42676">
        <ele>1772</ele>
        <time>2022-03-27T13:08:26Z</time>
      </trkpt>
      <trkpt lat="42.816" lon="-0.42667">
        <ele>1762</ele>
        <time>2022-03-27T13:09:02Z</time>
      </trkpt>
      <trkpt lat="42.81586" lon="-0.42649">
        <ele>1764</ele>
        <time>2022-03-27T13:09:17Z</time>
      </trkpt>
      <trkpt lat="42.81575" lon="-0.42625">
        <ele>1749.41</ele>
        <time>2022-03-27T13:09:23Z</time>
      </trkpt>
      <trkpt lat="42.81563" lon="-0.42605">
        <ele>1747.18</ele>
        <time>2022-03-27T13:09:27Z</time>
      </trkpt>
      <trkpt lat="42.81545" lon="-0.42591">
        <ele>1741.16</ele>
        <time>2022-03-27T13:09:32Z</time>
      </trkpt>
      <trkpt lat="42.81531" lon="-0.4257">
        <ele>1742.98</ele>
        <time>2022-03-27T13:09:37Z</time>
      </trkpt>
      <trkpt lat="42.81511" lon="-0.4257">
        <ele>1734.07</ele>
        <time>2022-03-27T13:09:41Z</time>
      </trkpt>
      <trkpt lat="42.81494" lon="-0.42579">
        <ele>1729</ele>
        <time>2022-03-27T13:10:44Z</time>
      </trkpt>
      <trkpt lat="42.8148" lon="-0.42594">
        <ele>1730</ele>
        <time>2022-03-27T13:11:02Z</time>
      </trkpt>
      <trkpt lat="42.81461" lon="-0.42596">
        <ele>1732</ele>
        <time>2022-03-27T13:11:25Z</time>
      </trkpt>
      <trkpt lat="42.81443" lon="-0.42588">
        <ele>1735.64</ele>
        <time>2022-03-27T13:11:50Z</time>
      </trkpt>
      <trkpt lat="42.81431" lon="-0.42569">
        <ele>1732</ele>
        <time>2022-03-27T13:12:17Z</time>
      </trkpt>
      <trkpt lat="42.81421" lon="-0.42548">
        <ele>1730</ele>
        <time>2022-03-27T13:12:39Z</time>
      </trkpt>
      <trkpt lat="42.81413" lon="-0.42526">
        <ele>1735.09</ele>
        <time>2022-03-27T13:13:01Z</time>
      </trkpt>
      <trkpt lat="42.81404" lon="-0.42504">
        <ele>1735</ele>
        <time>2022-03-27T13:13:26Z</time>
      </trkpt>
      <trkpt lat="42.81393" lon="-0.42484">
        <ele>1735</ele>
        <time>2022-03-27T13:14:27Z</time>
      </trkpt>
      <trkpt lat="42.81388" lon="-0.42455">
        <ele>1735.66</ele>
        <time>2022-03-27T13:14:34Z</time>
      </trkpt>
      <trkpt lat="42.81386" lon="-0.42428">
        <ele>1734.02</ele>
        <time>2022-03-27T13:14:39Z</time>
      </trkpt>
      <trkpt lat="42.81382" lon="-0.42403">
        <ele>1733</ele>
        <time>2022-03-27T13:14:46Z</time>
      </trkpt>
      <trkpt lat="42.81379" lon="-0.42377">
        <ele>1732.01</ele>
        <time>2022-03-27T13:14:54Z</time>
      </trkpt>
      <trkpt lat="42.81376" lon="-0.4235">
        <ele>1731.01</ele>
        <time>2022-03-27T13:15:02Z</time>
      </trkpt>
      <trkpt lat="42.81374" lon="-0.42323">
        <ele>1729.05</ele>
        <time>2022-03-27T13:15:08Z</time>
      </trkpt>
      <trkpt lat="42.81373" lon="-0.42297">
        <ele>1726.27</ele>
        <time>2022-03-27T13:15:12Z</time>
      </trkpt>
      <trkpt lat="42.81372" lon="-0.42266">
        <ele>1723.27</ele>
        <time>2022-03-27T13:15:16Z</time>
      </trkpt>
      <trkpt lat="42.8137" lon="-0.42239">
        <ele>1721.18</ele>
        <time>2022-03-27T13:15:20Z</time>
      </trkpt>
      <trkpt lat="42.81372" lon="-0.42212">
        <ele>1721</ele>
        <time>2022-03-27T13:15:26Z</time>
      </trkpt>
      <trkpt lat="42.81373" lon="-0.42184">
        <ele>1721</ele>
        <time>2022-03-27T13:15:34Z</time>
      </trkpt>
      <trkpt lat="42.8138" lon="-0.42161">
        <ele>1720.09</ele>
        <time>2022-03-27T13:15:41Z</time>
      </trkpt>
      <trkpt lat="42.81388" lon="-0.42138">
        <ele>1718.6</ele>
        <time>2022-03-27T13:20:14Z</time>
      </trkpt>
      <trkpt lat="42.81388" lon="-0.42113">
        <ele>1717.97</ele>
        <time>2022-03-27T13:20:30Z</time>
      </trkpt>
      <trkpt lat="42.81375" lon="-0.42095">
        <ele>1717</ele>
        <time>2022-03-27T13:20:48Z</time>
      </trkpt>
      <trkpt lat="42.8136" lon="-0.4208">
        <ele>1715.93</ele>
        <time>2022-03-27T13:21:06Z</time>
      </trkpt>
      <trkpt lat="42.81367" lon="-0.42055">
        <ele>1714.3</ele>
        <time>2022-03-27T13:21:25Z</time>
      </trkpt>
      <trkpt lat="42.81379" lon="-0.42035">
        <ele>1714</ele>
        <time>2022-03-27T13:21:37Z</time>
      </trkpt>
      <trkpt lat="42.81395" lon="-0.4202">
        <ele>1714</ele>
        <time>2022-03-27T13:21:58Z</time>
      </trkpt>
      <trkpt lat="42.81407" lon="-0.42002">
        <ele>1714</ele>
        <time>2022-03-27T13:22:12Z</time>
      </trkpt>
      <trkpt lat="42.81415" lon="-0.41978">
        <ele>1715</ele>
        <time>2022-03-27T13:22:33Z</time>
      </trkpt>
      <trkpt lat="42.81426" lon="-0.41957">
        <ele>1711</ele>
        <time>2022-03-27T13:22:51Z</time>
      </trkpt>
      <trkpt lat="42.81427" lon="-0.41931">
        <ele>1712</ele>
        <time>2022-03-27T13:23:10Z</time>
      </trkpt>
      <trkpt lat="42.81422" lon="-0.41907">
        <ele>1715</ele>
        <time>2022-03-27T13:23:25Z</time>
      </trkpt>
      <trkpt lat="42.81427" lon="-0.41883">
        <ele>1718</ele>
        <time>2022-03-27T13:23:44Z</time>
      </trkpt>
      <trkpt lat="42.8144" lon="-0.41865">
        <ele>1718</ele>
        <time>2022-03-27T13:24:03Z</time>
      </trkpt>
      <trkpt lat="42.81456" lon="-0.41852">
        <ele>1720</ele>
        <time>2022-03-27T13:24:22Z</time>
      </trkpt>
      <trkpt lat="42.81474" lon="-0.41847">
        <ele>1721.82</ele>
        <time>2022-03-27T13:24:44Z</time>
      </trkpt>
      <trkpt lat="42.81492" lon="-0.4185">
        <ele>1722</ele>
        <time>2022-03-27T13:25:06Z</time>
      </trkpt>
      <trkpt lat="42.8151" lon="-0.41842">
        <ele>1718</ele>
        <time>2022-03-27T13:25:23Z</time>
      </trkpt>
      <trkpt lat="42.81525" lon="-0.41827">
        <ele>1722</ele>
        <time>2022-03-27T13:25:41Z</time>
      </trkpt>
      <trkpt lat="42.81529" lon="-0.41803">
        <ele>1715.95</ele>
        <time>2022-03-27T13:26:00Z</time>
      </trkpt>
    </trkseg>
  </trk>
</gpx>